Time,TemperatureF,DewpointF,PressureIn,WindDirection,WindDirectionDegrees,WindSpeedMPH,WindSpeedGustMPH,Humidity,HourlyPrecipIn,Conditions,Clouds,dailyrainin,SoftwareType,DateUTC
2013-02-02 00:00:00,25.3,23.1,29.62,South,183,5.4,5.4,91,0.00,,,0.00,VWS V13.01,2013-02-02 06:00:00,
2013-02-02 00:01:00,25.3,23.1,29.62,South,183,4.0,4.0,91,0.00,,,0.00,VWS V13.01,2013-02-02 06:01:00,
2013-02-02 00:05:00,25.3,23.1,29.62,South,183,4.0,4.0,91,0.00,,,0.00,VWS V13.01,2013-02-02 06:05:00,
2013-02-02 00:06:00,25.3,23.1,29.62,South,183,4.0,4.0,91,0.00,,,0.00,VWS V13.01,2013-02-02 06:06:00,
2013-02-02 00:10:00,25.3,23.1,29.62,South,183,3.6,3.6,91,0.00,,,0.00,VWS V13.01,2013-02-02 06:10:00,
2013-02-02 00:11:00,25.3,23.1,29.62,South,183,3.6,3.6,91,0.00,,,0.00,VWS V13.01,2013-02-02 06:11:00,
2013-02-02 00:15:00,25.3,23.1,29.62,South,183,4.5,4.5,91,0.00,,,0.00,VWS V13.01,2013-02-02 06:15:00,
2013-02-02 00:16:00,25.3,23.1,29.62,South,183,4.9,4.9,91,0.00,,,0.00,VWS V13.01,2013-02-02 06:16:00,
2013-02-02 00:20:00,25.2,22.9,29.62,South,184,5.4,5.4,91,0.00,,,0.00,VWS V13.01,2013-02-02 06:20:00,
2013-02-02 00:21:00,25.2,22.9,29.62,South,184,5.8,5.8,91,0.00,,,0.00,VWS V13.01,2013-02-02 06:21:00,
2013-02-02 00:22:00,25.2,22.9,29.62,South,184,4.9,4.9,91,0.00,,,0.00,VWS V13.01,2013-02-02 06:22:00,
2013-02-02 00:25:00,25.2,22.9,29.62,South,179,4.0,4.0,91,0.00,,,0.00,VWS V13.01,2013-02-02 06:25:00,
2013-02-02 00:26:00,25.2,22.9,29.62,South,179,4.0,4.0,91,0.00,,,0.00,VWS V13.01,2013-02-02 06:26:00,
2013-02-02 00:27:00,25.2,22.9,29.62,South,179,5.4,5.4,91,0.00,,,0.00,VWS V13.01,2013-02-02 06:27:00,
2013-02-02 00:30:00,25.2,22.9,29.62,South,179,4.0,4.0,91,0.00,,,0.00,VWS V13.01,2013-02-02 06:30:00,
2013-02-02 00:31:00,25.2,22.9,29.62,South,179,3.6,3.6,91,0.00,,,0.00,VWS V13.01,2013-02-02 06:31:00,
2013-02-02 00:32:00,25.2,22.9,29.62,South,179,3.6,3.6,91,0.00,,,0.00,VWS V13.01,2013-02-02 06:32:00,
2013-02-02 00:35:00,25.3,23.1,29.62,South,178,4.9,4.9,91,0.00,,,0.00,VWS V13.01,2013-02-02 06:35:00,
2013-02-02 00:36:00,25.3,23.1,29.62,South,178,4.0,4.0,91,0.00,,,0.00,VWS V13.01,2013-02-02 06:36:00,
2013-02-02 00:37:00,25.3,23.1,29.62,South,178,5.4,5.4,91,0.00,,,0.00,VWS V13.01,2013-02-02 06:37:00,
2013-02-02 00:40:00,25.3,23.1,29.62,South,179,4.0,4.0,91,0.00,,,0.00,VWS V13.01,2013-02-02 06:40:00,
2013-02-02 00:41:00,25.3,23.1,29.62,South,179,5.8,5.8,91,0.00,,,0.00,VWS V13.01,2013-02-02 06:41:00,
2013-02-02 00:42:00,25.3,23.1,29.59,South,190,4.9,4.9,91,0.00,,,0.00,VWS V13.01,2013-02-02 06:42:00,
2013-02-02 00:45:00,25.3,23.1,29.59,South,170,4.0,4.0,91,0.00,,,0.00,VWS V13.01,2013-02-02 06:45:00,
2013-02-02 00:46:00,25.3,23.1,29.59,South,170,5.4,5.4,91,0.00,,,0.00,VWS V13.01,2013-02-02 06:46:00,
2013-02-02 00:47:00,25.3,23.1,29.59,South,171,4.9,4.9,91,0.00,,,0.00,VWS V13.01,2013-02-02 06:47:00,
2013-02-02 00:51:00,25.5,23.3,29.59,South,181,5.8,5.8,91,0.00,,,0.00,VWS V13.01,2013-02-02 06:51:00,
2013-02-02 00:52:00,25.5,23.3,29.59,South,177,5.4,5.4,91,0.00,,,0.00,VWS V13.01,2013-02-02 06:52:00,
2013-02-02 00:56:00,25.7,23.4,29.59,South,189,5.4,5.4,91,0.00,,,0.00,VWS V13.01,2013-02-02 06:56:00,
2013-02-02 00:57:00,25.7,23.4,29.59,South,181,6.3,6.3,91,0.00,,,0.00,VWS V13.01,2013-02-02 06:57:00,
2013-02-02 01:01:00,25.5,23.3,29.59,South,178,5.4,5.4,91,0.00,,,0.00,VWS V13.01,2013-02-02 07:01:00,
2013-02-02 01:02:00,25.7,23.4,29.59,South,176,6.3,6.3,91,0.00,,,0.00,VWS V13.01,2013-02-02 07:02:00,
2013-02-02 01:06:00,25.7,23.4,29.59,South,182,6.3,6.3,91,0.00,,,0.00,VWS V13.01,2013-02-02 07:06:00,
2013-02-02 01:07:00,25.7,23.4,29.59,South,181,6.3,6.3,91,0.00,,,0.00,VWS V13.01,2013-02-02 07:07:00,
2013-02-02 01:11:00,25.9,23.6,29.59,South,183,7.2,7.2,91,0.00,,,0.00,VWS V13.01,2013-02-02 07:11:00,
2013-02-02 01:12:00,25.9,23.6,29.59,South,185,5.8,5.8,91,0.00,,,0.00,VWS V13.01,2013-02-02 07:12:00,
2013-02-02 01:16:00,25.7,23.4,29.59,South,183,5.4,5.4,91,0.00,,,0.00,VWS V13.01,2013-02-02 07:16:00,
2013-02-02 01:17:00,25.7,23.4,29.59,South,184,6.3,6.3,91,0.00,,,0.00,VWS V13.01,2013-02-02 07:17:00,
2013-02-02 01:21:00,25.5,23.3,29.59,South,187,5.8,5.8,91,0.00,,,0.00,VWS V13.01,2013-02-02 07:21:00,
2013-02-02 01:22:00,25.3,23.1,29.59,South,181,6.3,6.3,91,0.00,,,0.00,VWS V13.01,2013-02-02 07:22:00,
2013-02-02 01:26:00,25.3,23.1,29.59,South,187,5.8,5.8,91,0.00,,,0.00,VWS V13.01,2013-02-02 07:26:00,
2013-02-02 01:27:00,25.3,23.1,29.56,South,189,6.3,6.3,91,0.00,,,0.00,VWS V13.01,2013-02-02 07:27:00,
2013-02-02 01:31:00,25.2,22.9,29.56,South,187,5.8,5.8,91,0.00,,,0.00,VWS V13.01,2013-02-02 07:31:00,
2013-02-02 01:32:00,25.3,23.1,29.56,SSW,192,6.3,6.3,91,0.00,,,0.00,VWS V13.01,2013-02-02 07:32:00,
2013-02-02 01:36:00,25.2,22.9,29.56,South,191,5.4,5.4,91,0.00,,,0.00,VWS V13.01,2013-02-02 07:36:00,
2013-02-02 01:37:00,25.0,22.7,29.56,South,191,4.9,4.9,91,0.00,,,0.00,VWS V13.01,2013-02-02 07:37:00,
2013-02-02 01:41:00,25.0,22.7,29.56,South,189,6.3,6.3,91,0.00,,,0.00,VWS V13.01,2013-02-02 07:41:00,
2013-02-02 01:42:00,24.8,22.5,29.59,South,187,5.4,5.4,91,0.00,,,0.00,VWS V13.01,2013-02-02 07:42:00,
2013-02-02 01:46:00,24.8,22.5,29.59,South,189,5.8,5.8,91,0.00,,,0.00,VWS V13.01,2013-02-02 07:46:00,
2013-02-02 01:47:00,24.8,22.5,29.59,South,180,5.8,5.8,91,0.00,,,0.00,VWS V13.01,2013-02-02 07:47:00,
2013-02-02 01:51:00,24.6,22.4,29.59,South,182,5.8,5.8,91,0.00,,,0.00,VWS V13.01,2013-02-02 07:51:00,
2013-02-02 01:52:00,24.4,22.2,29.59,South,186,5.4,5.4,91,0.00,,,0.00,VWS V13.01,2013-02-02 07:52:00,
2013-02-02 01:56:00,24.4,22.2,29.59,South,186,5.4,5.4,91,0.00,,,0.00,VWS V13.01,2013-02-02 07:56:00,
2013-02-02 01:57:00,24.4,22.2,29.59,South,183,5.8,5.8,91,0.00,,,0.00,VWS V13.01,2013-02-02 07:57:00,
2013-02-02 02:01:00,24.4,22.2,29.59,South,184,4.9,4.9,91,0.00,,,0.00,VWS V13.01,2013-02-02 08:01:00,
2013-02-02 02:05:00,24.3,22.0,29.59,South,184,5.4,5.4,91,0.00,,,0.00,VWS V13.01,2013-02-02 08:05:00,
2013-02-02 02:06:00,24.3,22.0,29.59,South,184,5.4,5.4,91,0.00,,,0.00,VWS V13.01,2013-02-02 08:06:00,
2013-02-02 02:10:00,24.3,22.0,29.59,South,184,5.8,5.8,91,0.00,,,0.00,VWS V13.01,2013-02-02 08:10:00,
2013-02-02 02:11:00,24.3,22.0,29.59,South,184,4.9,4.9,91,0.00,,,0.00,VWS V13.01,2013-02-02 08:11:00,
2013-02-02 02:16:00,24.3,22.0,29.59,South,184,5.4,5.4,91,0.00,,,0.00,VWS V13.01,2013-02-02 08:16:00,
2013-02-02 02:17:00,24.4,22.2,29.59,South,184,5.8,5.8,91,0.00,,,0.00,VWS V13.01,2013-02-02 08:17:00,
2013-02-02 02:21:00,24.6,22.4,29.59,South,184,5.4,5.4,91,0.00,,,0.00,VWS V13.01,2013-02-02 08:21:00,
2013-02-02 02:22:00,24.8,22.5,29.59,South,184,6.3,6.3,91,0.00,,,0.00,VWS V13.01,2013-02-02 08:22:00,
2013-02-02 02:26:00,25.2,22.9,29.59,South,184,5.8,5.8,91,0.00,,,0.00,VWS V13.01,2013-02-02 08:26:00,
2013-02-02 02:27:00,25.2,22.9,29.59,South,184,6.3,6.3,91,0.00,,,0.00,VWS V13.01,2013-02-02 08:27:00,
2013-02-02 02:31:00,25.5,23.3,29.59,South,185,7.6,7.6,91,0.00,,,0.00,VWS V13.01,2013-02-02 08:31:00,
2013-02-02 02:32:00,25.7,23.4,29.59,South,185,8.3,8.3,91,0.00,,,0.00,VWS V13.01,2013-02-02 08:32:00,
2013-02-02 02:36:00,25.9,23.6,29.59,South,181,6.3,6.3,91,0.00,,,0.00,VWS V13.01,2013-02-02 08:36:00,
2013-02-02 02:37:00,25.9,23.6,29.59,SSW,193,8.1,8.1,91,0.00,,,0.00,VWS V13.01,2013-02-02 08:37:00,
2013-02-02 02:41:00,26.1,23.8,29.59,South,180,8.1,8.1,91,0.00,,,0.00,VWS V13.01,2013-02-02 08:41:00,
2013-02-02 02:42:00,26.1,23.8,29.59,South,177,8.1,8.1,91,0.00,,,0.00,VWS V13.01,2013-02-02 08:42:00,
2013-02-02 02:46:00,26.1,23.8,29.56,South,191,7.2,7.2,91,0.00,,,0.00,VWS V13.01,2013-02-02 08:46:00,
2013-02-02 02:47:00,26.1,23.8,29.56,South,187,6.3,6.3,91,0.00,,,0.00,VWS V13.01,2013-02-02 08:47:00,
2013-02-02 02:51:00,26.1,23.8,29.56,SSW,195,6.3,6.3,91,0.00,,,0.00,VWS V13.01,2013-02-02 08:51:00,
2013-02-02 02:52:00,26.2,24.0,29.56,SSW,193,5.8,5.8,91,0.00,,,0.00,VWS V13.01,2013-02-02 08:52:00,
2013-02-02 02:56:00,26.2,24.0,29.56,South,182,5.8,5.8,91,0.00,,,0.00,VWS V13.01,2013-02-02 08:56:00,
2013-02-02 02:57:00,26.2,24.0,29.56,South,187,5.4,5.4,91,0.00,,,0.00,VWS V13.01,2013-02-02 08:57:00,
2013-02-02 03:01:00,26.2,24.0,29.56,South,185,5.8,5.8,91,0.00,,,0.00,VWS V13.01,2013-02-02 09:01:00,
2013-02-02 03:02:00,26.2,24.0,29.56,South,189,6.3,6.3,91,0.00,,,0.00,VWS V13.01,2013-02-02 09:02:00,
2013-02-02 03:06:00,26.2,24.0,29.56,South,170,4.0,4.0,91,0.00,,,0.00,VWS V13.01,2013-02-02 09:06:00,
2013-02-02 03:07:00,26.1,23.8,29.56,South,186,5.8,5.8,91,0.00,,,0.00,VWS V13.01,2013-02-02 09:07:00,
2013-02-02 03:11:00,26.1,23.8,29.56,South,186,5.4,5.4,91,0.00,,,0.00,VWS V13.01,2013-02-02 09:11:00,
2013-02-02 03:12:00,26.1,23.8,29.59,South,186,5.8,5.8,91,0.00,,,0.00,VWS V13.01,2013-02-02 09:12:00,
2013-02-02 03:16:00,26.2,24.0,29.59,South,186,5.4,5.4,91,0.00,,,0.00,VWS V13.01,2013-02-02 09:16:00,
2013-02-02 03:17:00,26.2,24.0,29.59,South,186,5.8,5.8,91,0.00,,,0.00,VWS V13.01,2013-02-02 09:17:00,
2013-02-02 03:21:00,26.2,24.0,29.59,South,187,5.4,5.4,91,0.00,,,0.00,VWS V13.01,2013-02-02 09:21:00,
2013-02-02 03:22:00,26.2,24.0,29.59,South,187,5.4,5.4,91,0.00,,,0.00,VWS V13.01,2013-02-02 09:22:00,
2013-02-02 03:26:00,26.1,23.8,29.59,South,188,5.8,5.8,91,0.00,,,0.00,VWS V13.01,2013-02-02 09:26:00,
2013-02-02 03:27:00,26.1,23.8,29.59,South,188,7.2,7.2,91,0.00,,,0.00,VWS V13.01,2013-02-02 09:27:00,
2013-02-02 03:31:00,25.9,23.6,29.56,South,189,7.6,7.6,91,0.00,,,0.00,VWS V13.01,2013-02-02 09:31:00,
2013-02-02 03:32:00,25.9,23.6,29.56,South,188,7.6,7.6,91,0.00,,,0.00,VWS V13.01,2013-02-02 09:32:00,
2013-02-02 03:36:00,25.9,23.6,29.56,South,188,5.4,5.4,91,0.00,,,0.00,VWS V13.01,2013-02-02 09:36:00,
2013-02-02 03:37:00,25.9,23.6,29.56,South,188,5.8,5.8,91,0.00,,,0.00,VWS V13.01,2013-02-02 09:37:00,
2013-02-02 03:41:00,26.1,23.8,29.56,South,188,5.8,5.8,91,0.00,,,0.00,VWS V13.01,2013-02-02 09:41:00,
2013-02-02 03:42:00,26.1,23.8,29.56,South,188,5.4,5.4,91,0.00,,,0.00,VWS V13.01,2013-02-02 09:42:00,
2013-02-02 03:46:00,26.1,23.8,29.59,South,188,4.9,4.9,91,0.00,,,0.00,VWS V13.01,2013-02-02 09:46:00,
2013-02-02 03:47:00,26.1,23.8,29.59,South,188,5.8,5.8,91,0.00,,,0.00,VWS V13.01,2013-02-02 09:47:00,
2013-02-02 03:48:00,26.1,23.8,29.59,South,188,5.4,5.4,91,0.00,,,0.00,VWS V13.01,2013-02-02 09:48:00,
2013-02-02 03:51:00,26.1,23.8,29.59,South,188,0.0,0.0,91,0.00,,,0.00,VWS V13.01,2013-02-02 09:51:00,
2013-02-02 03:52:00,26.1,23.8,29.59,South,188,0.0,0.0,91,0.00,,,0.00,VWS V13.01,2013-02-02 09:52:00,
2013-02-02 03:53:00,26.1,23.8,29.59,South,188,2.2,2.2,91,0.00,,,0.00,VWS V13.01,2013-02-02 09:53:00,
2013-02-02 03:56:00,25.9,23.6,29.59,South,188,0.0,0.0,91,0.00,,,0.00,VWS V13.01,2013-02-02 09:56:00,
2013-02-02 03:57:00,25.9,23.6,29.56,South,188,0.0,0.0,91,0.00,,,0.00,VWS V13.01,2013-02-02 09:57:00,
2013-02-02 03:58:00,26.1,23.8,29.56,South,188,3.6,3.6,91,0.00,,,0.00,VWS V13.01,2013-02-02 09:58:00,
2013-02-02 04:01:00,26.1,23.8,29.56,South,188,3.1,3.1,91,0.00,,,0.00,VWS V13.01,2013-02-02 10:01:00,
2013-02-02 04:02:00,26.1,23.8,29.56,South,188,0.0,0.0,91,0.00,,,0.00,VWS V13.01,2013-02-02 10:02:00,
2013-02-02 04:03:00,26.1,23.8,29.56,South,188,0.0,0.0,91,0.00,,,0.00,VWS V13.01,2013-02-02 10:03:00,
2013-02-02 04:06:00,25.9,23.6,29.56,South,188,0.0,0.0,91,0.00,,,0.00,VWS V13.01,2013-02-02 10:06:00,
2013-02-02 04:07:00,25.9,23.6,29.56,South,188,0.0,0.0,91,0.00,,,0.00,VWS V13.01,2013-02-02 10:07:00,
2013-02-02 04:08:00,25.7,23.4,29.56,South,188,0.0,0.0,91,0.00,,,0.00,VWS V13.01,2013-02-02 10:08:00,
2013-02-02 04:11:00,25.7,23.4,29.56,South,188,0.0,0.0,91,0.00,,,0.00,VWS V13.01,2013-02-02 10:11:00,
2013-02-02 04:12:00,25.7,23.4,29.59,South,188,0.0,0.0,91,0.00,,,0.00,VWS V13.01,2013-02-02 10:12:00,
2013-02-02 04:13:00,25.7,23.4,29.59,South,188,0.0,0.0,91,0.00,,,0.00,VWS V13.01,2013-02-02 10:13:00,
2013-02-02 04:16:00,25.9,23.6,29.59,South,188,0.0,0.0,91,0.00,,,0.00,VWS V13.01,2013-02-02 10:16:00,
2013-02-02 04:17:00,25.9,23.6,29.59,South,188,0.0,0.0,91,0.00,,,0.00,VWS V13.01,2013-02-02 10:17:00,
2013-02-02 04:18:00,25.9,23.6,29.59,South,188,0.0,0.0,91,0.00,,,0.00,VWS V13.01,2013-02-02 10:18:00,
2013-02-02 04:21:00,26.1,23.8,29.59,South,191,6.3,6.3,91,0.00,,,0.00,VWS V13.01,2013-02-02 10:21:00,
2013-02-02 04:22:00,26.1,23.8,29.59,South,191,4.0,4.0,91,0.00,,,0.00,VWS V13.01,2013-02-02 10:22:00,
2013-02-02 04:23:00,26.1,23.8,29.59,South,191,3.1,3.1,91,0.00,,,0.00,VWS V13.01,2013-02-02 10:23:00,
2013-02-02 04:26:00,26.2,24.0,29.59,South,191,0.0,0.0,91,0.00,,,0.00,VWS V13.01,2013-02-02 10:26:00,
2013-02-02 04:27:00,26.2,24.0,29.59,South,191,4.0,4.0,91,0.00,,,0.00,VWS V13.01,2013-02-02 10:27:00,
2013-02-02 04:28:00,26.2,24.0,29.56,South,191,2.7,2.7,91,0.00,,,0.00,VWS V13.01,2013-02-02 10:28:00,
2013-02-02 04:31:00,26.1,23.8,29.56,South,191,3.1,3.1,91,0.00,,,0.00,VWS V13.01,2013-02-02 10:31:00,
2013-02-02 04:32:00,26.1,23.8,29.56,South,191,3.6,3.6,91,0.00,,,0.00,VWS V13.01,2013-02-02 10:32:00,
2013-02-02 04:33:00,26.1,23.8,29.56,South,191,2.7,2.7,91,0.00,,,0.00,VWS V13.01,2013-02-02 10:33:00,
2013-02-02 04:36:00,26.2,24.0,29.56,South,191,3.6,3.6,91,0.00,,,0.00,VWS V13.01,2013-02-02 10:36:00,
2013-02-02 04:37:00,26.2,24.0,29.56,South,191,3.6,3.6,91,0.00,,,0.00,VWS V13.01,2013-02-02 10:37:00,
2013-02-02 04:38:00,26.2,24.0,29.56,South,191,3.1,3.1,91,0.00,,,0.00,VWS V13.01,2013-02-02 10:38:00,
2013-02-02 04:42:00,26.2,24.0,29.59,SSW,194,5.4,5.4,91,0.00,,,0.00,VWS V13.01,2013-02-02 10:42:00,
2013-02-02 04:43:00,26.2,24.0,29.59,SSW,194,3.1,3.1,91,0.00,,,0.00,VWS V13.01,2013-02-02 10:43:00,
2013-02-02 04:47:00,26.1,23.8,29.59,SSW,194,0.0,0.0,91,0.00,,,0.00,VWS V13.01,2013-02-02 10:47:00,
2013-02-02 04:48:00,26.1,23.8,29.59,SSW,194,0.0,0.0,91,0.00,,,0.00,VWS V13.01,2013-02-02 10:48:00,
2013-02-02 04:52:00,25.9,23.6,29.59,SSW,194,0.0,0.0,91,0.00,,,0.00,VWS V13.01,2013-02-02 10:52:00,
2013-02-02 04:53:00,25.9,23.6,29.59,SSW,194,0.0,0.0,91,0.00,,,0.00,VWS V13.01,2013-02-02 10:53:00,
2013-02-02 04:57:00,25.7,23.4,29.59,SSW,194,0.0,0.0,91,0.00,,,0.00,VWS V13.01,2013-02-02 10:57:00,
2013-02-02 04:58:00,25.7,23.4,29.59,SSW,194,0.0,0.0,91,0.00,,,0.00,VWS V13.01,2013-02-02 10:58:00,
2013-02-02 05:02:00,25.5,23.3,29.59,SSW,194,4.0,4.0,91,0.00,,,0.00,VWS V13.01,2013-02-02 11:02:00,
2013-02-02 05:03:00,25.5,23.3,29.59,SSW,194,2.2,2.2,91,0.00,,,0.00,VWS V13.01,2013-02-02 11:03:00,
2013-02-02 05:07:00,25.5,23.3,29.59,SSW,194,0.0,0.0,91,0.00,,,0.00,VWS V13.01,2013-02-02 11:07:00,
2013-02-02 05:08:00,25.7,23.4,29.59,SSW,194,0.0,0.0,91,0.00,,,0.00,VWS V13.01,2013-02-02 11:08:00,
2013-02-02 05:12:00,26.1,23.8,29.59,SSW,194,0.0,0.0,91,0.00,,,0.00,VWS V13.01,2013-02-02 11:12:00,
2013-02-02 05:13:00,26.1,23.8,29.59,SSW,194,0.0,0.0,91,0.00,,,0.00,VWS V13.01,2013-02-02 11:13:00,
2013-02-02 05:17:00,26.6,24.3,29.59,SSW,194,3.1,3.1,91,0.00,,,0.00,VWS V13.01,2013-02-02 11:17:00,
2013-02-02 05:18:00,26.6,24.3,29.59,SSW,194,3.1,3.1,91,0.00,,,0.00,VWS V13.01,2013-02-02 11:18:00,
2013-02-02 05:22:00,27.0,23.1,29.59,SSW,194,0.0,0.0,85,0.00,,,0.00,VWS V13.01,2013-02-02 11:22:00,
2013-02-02 05:23:00,27.0,23.1,29.59,SSW,194,0.0,0.0,85,0.00,,,0.00,VWS V13.01,2013-02-02 11:23:00,
2013-02-02 05:27:00,27.0,23.1,29.59,SSW,194,0.0,0.0,85,0.00,,,0.00,VWS V13.01,2013-02-02 11:27:00,
2013-02-02 05:28:00,27.0,23.1,29.59,SSW,194,0.0,0.0,85,0.00,,,0.00,VWS V13.01,2013-02-02 11:28:00,
2013-02-02 05:29:00,27.0,23.1,29.59,SSW,194,0.0,0.0,85,0.00,,,0.00,VWS V13.01,2013-02-02 11:29:00,
2013-02-02 05:32:00,27.0,23.1,29.59,SSW,194,0.0,0.0,85,0.00,,,0.00,VWS V13.01,2013-02-02 11:32:00,
2013-02-02 05:33:00,27.0,23.1,29.59,West,276,2.2,2.2,85,0.00,,,0.00,VWS V13.01,2013-02-02 11:33:00,
2013-02-02 05:34:00,27.0,23.1,29.59,West,275,2.7,2.7,85,0.00,,,0.00,VWS V13.01,2013-02-02 11:34:00,
2013-02-02 05:37:00,27.0,23.1,29.59,West,272,0.0,0.0,85,0.00,,,0.00,VWS V13.01,2013-02-02 11:37:00,
2013-02-02 05:39:00,27.0,23.1,29.59,West,274,4.9,4.9,85,0.00,,,0.00,VWS V13.01,2013-02-02 11:39:00,
2013-02-02 05:42:00,27.0,23.1,29.59,WNW,282,0.0,0.0,85,0.00,,,0.00,VWS V13.01,2013-02-02 11:42:00,
2013-02-02 05:44:00,26.8,22.9,29.59,West,275,0.0,0.0,85,0.00,,,0.00,VWS V13.01,2013-02-02 11:44:00,
2013-02-02 05:47:00,26.8,22.9,29.59,West,274,0.0,0.0,85,0.00,,,0.00,VWS V13.01,2013-02-02 11:47:00,
2013-02-02 05:49:00,26.6,24.3,29.59,West,275,0.0,0.0,91,0.00,,,0.00,VWS V13.01,2013-02-02 11:49:00,
2013-02-02 05:52:00,26.4,24.1,29.59,West,281,0.0,0.0,91,0.00,,,0.00,VWS V13.01,2013-02-02 11:52:00,
2013-02-02 05:54:00,26.6,24.3,29.59,WNW,297,0.0,0.0,91,0.00,,,0.00,VWS V13.01,2013-02-02 11:54:00,
2013-02-02 05:57:00,26.4,24.1,29.59,West,275,0.0,0.0,91,0.00,,,0.00,VWS V13.01,2013-02-02 11:57:00,
2013-02-02 05:59:00,26.2,24.0,29.59,West,275,0.0,0.0,91,0.00,,,0.00,VWS V13.01,2013-02-02 11:59:00,
2013-02-02 06:02:00,26.1,23.8,29.59,West,275,0.0,0.0,91,0.00,,,0.00,VWS V13.01,2013-02-02 12:02:00,
2013-02-02 06:04:00,26.1,23.8,29.59,West,275,3.6,3.6,91,0.00,,,0.00,VWS V13.01,2013-02-02 12:04:00,
2013-02-02 06:07:00,26.1,23.8,29.59,West,280,0.0,0.0,91,0.00,,,0.00,VWS V13.01,2013-02-02 12:07:00,
2013-02-02 06:09:00,26.2,24.0,29.59,West,277,5.4,5.4,91,0.00,,,0.00,VWS V13.01,2013-02-02 12:09:00,
2013-02-02 06:12:00,26.2,24.0,29.62,West,277,0.0,0.0,91,0.00,,,0.00,VWS V13.01,2013-02-02 12:12:00,
2013-02-02 06:14:00,26.4,24.1,29.62,West,275,0.0,0.0,91,0.00,,,0.00,VWS V13.01,2013-02-02 12:14:00,
2013-02-02 06:17:00,26.4,24.1,29.62,West,275,0.0,0.0,91,0.00,,,0.00,VWS V13.01,2013-02-02 12:17:00,
2013-02-02 06:19:00,26.4,24.1,29.62,West,275,0.0,0.0,91,0.00,,,0.00,VWS V13.01,2013-02-02 12:19:00,
2013-02-02 06:22:00,26.2,24.0,29.62,West,276,0.0,0.0,91,0.00,,,0.00,VWS V13.01,2013-02-02 12:22:00,
2013-02-02 06:24:00,26.4,24.1,29.62,West,276,0.0,0.0,91,0.00,,,0.00,VWS V13.01,2013-02-02 12:24:00,
2013-02-02 06:27:00,26.4,24.1,29.59,West,276,0.0,0.0,91,0.00,,,0.00,VWS V13.01,2013-02-02 12:27:00,
2013-02-02 06:29:00,26.4,24.1,29.59,West,276,0.0,0.0,91,0.00,,,0.00,VWS V13.01,2013-02-02 12:29:00,
2013-02-02 06:32:00,26.2,24.0,29.59,West,276,0.0,0.0,91,0.00,,,0.00,VWS V13.01,2013-02-02 12:32:00,
2013-02-02 06:33:00,26.2,24.0,29.59,West,276,0.0,0.0,91,0.00,,,0.00,VWS V13.01,2013-02-02 12:33:00,
2013-02-02 06:34:00,26.2,24.0,29.59,West,276,0.0,0.0,91,0.00,,,0.00,VWS V13.01,2013-02-02 12:34:00,
2013-02-02 06:37:00,26.4,24.1,29.59,West,276,0.0,0.0,91,0.00,,,0.00,VWS V13.01,2013-02-02 12:37:00,
2013-02-02 06:38:00,26.4,24.1,29.59,West,276,0.0,0.0,91,0.00,,,0.00,VWS V13.01,2013-02-02 12:38:00,
2013-02-02 06:39:00,26.4,24.1,29.59,West,276,0.0,0.0,91,0.00,,,0.00,VWS V13.01,2013-02-02 12:39:00,
2013-02-02 06:42:00,26.8,22.9,29.62,West,276,0.0,0.0,85,0.00,,,0.00,VWS V13.01,2013-02-02 12:42:00,
2013-02-02 06:43:00,26.8,22.9,29.62,West,276,0.0,0.0,85,0.00,,,0.00,VWS V13.01,2013-02-02 12:43:00,
2013-02-02 06:44:00,26.8,22.9,29.62,West,276,0.0,0.0,85,0.00,,,0.00,VWS V13.01,2013-02-02 12:44:00,
2013-02-02 06:47:00,26.6,24.3,29.62,West,276,0.0,0.0,91,0.00,,,0.00,VWS V13.01,2013-02-02 12:47:00,
2013-02-02 06:48:00,26.6,24.3,29.62,West,276,0.0,0.0,91,0.00,,,0.00,VWS V13.01,2013-02-02 12:48:00,
2013-02-02 06:49:00,26.6,24.3,29.62,West,276,0.0,0.0,91,0.00,,,0.00,VWS V13.01,2013-02-02 12:49:00,
2013-02-02 06:52:00,26.6,24.3,29.62,West,276,0.0,0.0,91,0.00,,,0.00,VWS V13.01,2013-02-02 12:52:00,
2013-02-02 06:53:00,26.6,24.3,29.62,West,276,0.0,0.0,91,0.00,,,0.00,VWS V13.01,2013-02-02 12:53:00,
2013-02-02 06:54:00,26.4,24.1,29.62,West,276,0.0,0.0,91,0.00,,,0.00,VWS V13.01,2013-02-02 12:54:00,
2013-02-02 06:58:00,26.4,24.1,29.59,West,276,0.0,0.0,91,0.00,,,0.00,VWS V13.01,2013-02-02 12:58:00,
2013-02-02 06:59:00,26.4,24.1,29.59,West,276,0.0,0.0,91,0.00,,,0.00,VWS V13.01,2013-02-02 12:59:00,
2013-02-02 07:03:00,26.2,24.0,29.59,West,276,0.0,0.0,91,0.00,,,0.00,VWS V13.01,2013-02-02 13:03:00,
2013-02-02 07:04:00,26.1,23.8,29.59,West,276,0.0,0.0,91,0.00,,,0.00,VWS V13.01,2013-02-02 13:04:00,
2013-02-02 07:08:00,25.9,23.6,29.59,West,276,0.0,0.0,91,0.00,,,0.00,VWS V13.01,2013-02-02 13:08:00,
2013-02-02 07:09:00,26.1,23.8,29.59,West,276,0.0,0.0,91,0.00,,,0.00,VWS V13.01,2013-02-02 13:09:00,
2013-02-02 07:13:00,25.9,23.6,29.62,West,276,0.0,0.0,91,0.00,,,0.00,VWS V13.01,2013-02-02 13:13:00,
2013-02-02 07:14:00,25.7,23.4,29.62,West,276,0.0,0.0,91,0.00,,,0.00,VWS V13.01,2013-02-02 13:14:00,
2013-02-02 07:18:00,25.5,23.3,29.62,West,276,0.0,0.0,91,0.00,,,0.00,VWS V13.01,2013-02-02 13:18:00,
2013-02-02 07:19:00,25.5,23.3,29.62,West,276,0.0,0.0,91,0.00,,,0.00,VWS V13.01,2013-02-02 13:19:00,
2013-02-02 07:20:00,25.5,23.3,29.62,West,276,0.0,0.0,91,0.00,,,0.00,VWS V13.01,2013-02-02 13:20:00,
2013-02-02 07:23:00,25.5,23.3,29.62,West,276,0.0,0.0,91,0.00,,,0.00,VWS V13.01,2013-02-02 13:23:00,
2013-02-02 07:24:00,25.5,23.3,29.62,West,276,0.0,0.0,91,0.00,,,0.00,VWS V13.01,2013-02-02 13:24:00,
2013-02-02 07:25:00,25.5,23.3,29.62,West,276,0.0,0.0,91,0.00,,,0.00,VWS V13.01,2013-02-02 13:25:00,
2013-02-02 07:28:00,25.5,23.3,29.62,West,276,0.0,0.0,91,0.00,,,0.00,VWS V13.01,2013-02-02 13:28:00,
2013-02-02 07:29:00,25.7,23.4,29.62,West,276,0.0,0.0,91,0.00,,,0.00,VWS V13.01,2013-02-02 13:29:00,
2013-02-02 07:30:00,25.7,23.4,29.62,West,276,0.0,0.0,91,0.00,,,0.00,VWS V13.01,2013-02-02 13:30:00,
2013-02-02 07:33:00,26.1,23.8,29.62,West,276,0.0,0.0,91,0.00,,,0.00,VWS V13.01,2013-02-02 13:33:00,
2013-02-02 07:34:00,26.2,24.0,29.62,West,276,0.0,0.0,91,0.00,,,0.00,VWS V13.01,2013-02-02 13:34:00,
2013-02-02 07:35:00,26.2,24.0,29.62,West,276,0.0,0.0,91,0.00,,,0.00,VWS V13.01,2013-02-02 13:35:00,
2013-02-02 07:38:00,26.6,24.3,29.62,West,276,0.0,0.0,91,0.00,,,0.00,VWS V13.01,2013-02-02 13:38:00,
2013-02-02 07:39:00,26.8,22.9,29.62,West,276,0.0,0.0,85,0.00,,,0.00,VWS V13.01,2013-02-02 13:39:00,
2013-02-02 07:40:00,26.8,22.9,29.62,West,276,0.0,0.0,85,0.00,,,0.00,VWS V13.01,2013-02-02 13:40:00,
2013-02-02 07:43:00,27.0,23.1,29.62,West,276,0.0,0.0,85,0.00,,,0.00,VWS V13.01,2013-02-02 13:43:00,
2013-02-02 07:44:00,27.1,23.2,29.62,West,276,0.0,0.0,85,0.00,,,0.00,VWS V13.01,2013-02-02 13:44:00,
2013-02-02 07:45:00,27.1,23.2,29.62,West,276,0.0,0.0,85,0.00,,,0.00,VWS V13.01,2013-02-02 13:45:00,
2013-02-02 07:48:00,27.3,23.4,29.62,West,276,0.0,0.0,85,0.00,,,0.00,VWS V13.01,2013-02-02 13:48:00,
2013-02-02 07:49:00,27.5,23.6,29.62,West,276,0.0,0.0,85,0.00,,,0.00,VWS V13.01,2013-02-02 13:49:00,
2013-02-02 07:50:00,27.5,23.6,29.62,West,276,0.0,0.0,85,0.00,,,0.00,VWS V13.01,2013-02-02 13:50:00,
2013-02-02 07:53:00,27.7,23.8,29.62,West,276,0.0,0.0,85,0.00,,,0.00,VWS V13.01,2013-02-02 13:53:00,
2013-02-02 07:54:00,27.7,23.8,29.62,West,276,0.0,0.0,85,0.00,,,0.00,VWS V13.01,2013-02-02 13:54:00,
2013-02-02 07:55:00,27.9,24.0,29.62,West,276,0.0,0.0,85,0.00,,,0.00,VWS V13.01,2013-02-02 13:55:00,
2013-02-02 07:58:00,28.0,24.1,29.62,West,276,0.0,0.0,85,0.00,,,0.00,VWS V13.01,2013-02-02 13:58:00,
2013-02-02 07:59:00,28.0,24.1,29.62,West,276,0.0,0.0,85,0.00,,,0.00,VWS V13.01,2013-02-02 13:59:00,
2013-02-02 08:00:00,28.0,24.1,29.62,West,276,0.0,0.0,85,0.00,,,0.00,VWS V13.01,2013-02-02 14:00:00,
2013-02-02 08:03:00,28.0,24.1,29.62,West,276,0.0,0.0,85,0.00,,,0.00,VWS V13.01,2013-02-02 14:03:00,
2013-02-02 08:04:00,28.0,24.1,29.62,West,276,0.0,0.0,85,0.00,,,0.00,VWS V13.01,2013-02-02 14:04:00,
2013-02-02 08:05:00,28.0,24.1,29.62,West,276,0.0,0.0,85,0.00,,,0.00,VWS V13.01,2013-02-02 14:05:00,
2013-02-02 08:08:00,28.0,24.1,29.62,West,276,0.0,0.0,85,0.00,,,0.00,VWS V13.01,2013-02-02 14:08:00,
2013-02-02 08:10:00,28.0,24.1,29.62,West,276,0.0,0.0,85,0.00,,,0.00,VWS V13.01,2013-02-02 14:10:00,
2013-02-02 08:13:00,28.4,24.5,29.65,West,276,0.0,0.0,85,0.00,,,0.00,VWS V13.01,2013-02-02 14:13:00,
2013-02-02 08:15:00,28.6,24.6,29.65,West,276,0.0,0.0,85,0.00,,,0.00,VWS V13.01,2013-02-02 14:15:00,
2013-02-02 08:18:00,28.9,25.0,29.65,West,276,0.0,0.0,85,0.00,,,0.00,VWS V13.01,2013-02-02 14:18:00,
2013-02-02 08:20:00,29.1,25.2,29.65,West,276,0.0,0.0,85,0.00,,,0.00,VWS V13.01,2013-02-02 14:20:00,
2013-02-02 08:23:00,29.3,25.4,29.65,West,276,0.0,0.0,85,0.00,,,0.00,VWS V13.01,2013-02-02 14:23:00,
2013-02-02 08:25:00,29.3,25.4,29.65,West,276,0.0,0.0,85,0.00,,,0.00,VWS V13.01,2013-02-02 14:25:00,
2013-02-02 08:28:00,29.5,25.5,29.65,WNW,290,0.0,0.0,85,0.00,,,0.00,VWS V13.01,2013-02-02 14:28:00,
2013-02-02 08:30:00,29.5,25.5,29.65,WNW,290,0.0,0.0,85,0.00,,,0.00,VWS V13.01,2013-02-02 14:30:00,
2013-02-02 08:33:00,29.8,25.9,29.65,WNW,290,0.0,0.0,85,0.00,,,0.00,VWS V13.01,2013-02-02 14:33:00,
2013-02-02 08:35:00,29.8,25.9,29.65,WNW,290,0.0,0.0,85,0.00,,,0.00,VWS V13.01,2013-02-02 14:35:00,
2013-02-02 08:38:00,30.2,26.2,29.65,WNW,290,0.0,0.0,85,0.00,,,0.00,VWS V13.01,2013-02-02 14:38:00,
2013-02-02 08:40:00,30.2,26.2,29.65,WNW,290,0.0,0.0,85,0.00,,,0.00,VWS V13.01,2013-02-02 14:40:00,
2013-02-02 08:43:00,30.6,26.6,29.65,West,278,0.0,0.0,85,0.00,,,0.00,VWS V13.01,2013-02-02 14:43:00,
2013-02-02 08:45:00,30.7,26.8,29.65,West,278,0.0,0.0,85,0.00,,,0.00,VWS V13.01,2013-02-02 14:45:00,
2013-02-02 08:48:00,30.7,26.8,29.65,West,278,0.0,0.0,85,0.00,,,0.00,VWS V13.01,2013-02-02 14:48:00,
2013-02-02 08:50:00,30.9,27.0,29.65,West,278,0.0,0.0,85,0.00,,,0.00,VWS V13.01,2013-02-02 14:50:00,
2013-02-02 08:53:00,30.9,27.0,29.65,West,278,0.0,0.0,85,0.00,,,0.00,VWS V13.01,2013-02-02 14:53:00,
2013-02-02 08:54:00,30.9,27.0,29.65,West,278,0.0,0.0,85,0.00,,,0.00,VWS V13.01,2013-02-02 14:54:00,
2013-02-02 08:55:00,30.9,27.0,29.65,West,278,4.0,4.0,85,0.00,,,0.00,VWS V13.01,2013-02-02 14:55:00,
2013-02-02 08:58:00,30.9,27.0,29.65,WNW,294,0.0,0.0,85,0.00,,,0.00,VWS V13.01,2013-02-02 14:58:00,
2013-02-02 08:59:00,30.9,27.0,29.65,WNW,294,0.0,0.0,85,0.00,,,0.00,VWS V13.01,2013-02-02 14:59:00,
2013-02-02 09:00:00,30.9,27.0,29.65,WNW,284,2.2,2.2,85,0.00,,,0.00,VWS V13.01,2013-02-02 15:00:00,
2013-02-02 09:03:00,31.1,27.1,29.65,WNW,290,3.1,3.1,85,0.00,,,0.00,VWS V13.01,2013-02-02 15:03:00,
2013-02-02 09:04:00,31.1,27.1,29.65,WNW,288,3.6,3.6,85,0.00,,,0.00,VWS V13.01,2013-02-02 15:04:00,
2013-02-02 09:05:00,31.1,27.1,29.65,West,271,3.6,3.6,85,0.00,,,0.00,VWS V13.01,2013-02-02 15:05:00,
2013-02-02 09:09:00,31.6,27.7,29.65,WNW,283,0.0,0.0,85,0.00,,,0.00,VWS V13.01,2013-02-02 15:09:00,
2013-02-02 09:10:00,32.0,28.0,29.65,West,271,3.6,3.6,85,0.00,,,0.00,VWS V13.01,2013-02-02 15:10:00,
2013-02-02 09:14:00,32.4,28.4,29.65,West,275,5.4,5.4,85,0.00,,,0.00,VWS V13.01,2013-02-02 15:14:00,
2013-02-02 09:15:00,32.4,28.4,29.65,West,273,6.3,6.3,85,0.00,,,0.00,VWS V13.01,2013-02-02 15:15:00,
2013-02-02 09:19:00,32.4,28.4,29.65,WNW,300,3.6,3.6,85,0.00,,,0.00,VWS V13.01,2013-02-02 15:19:00,
2013-02-02 09:20:00,32.5,28.5,29.65,West,273,3.6,3.6,85,0.00,,,0.00,VWS V13.01,2013-02-02 15:20:00,
2013-02-02 09:24:00,32.9,28.9,29.65,West,275,2.7,2.7,85,0.00,,,0.00,VWS V13.01,2013-02-02 15:24:00,
2013-02-02 09:25:00,33.3,29.2,29.65,West,275,0.0,0.0,85,0.00,,,0.00,VWS V13.01,2013-02-02 15:25:00,
2013-02-02 09:29:00,34.5,28.7,29.65,NW,313,0.0,0.0,79,0.00,,,0.00,VWS V13.01,2013-02-02 15:29:00,
2013-02-02 09:30:00,34.5,28.7,29.65,West,280,2.7,2.7,79,0.00,,,0.00,VWS V13.01,2013-02-02 15:30:00,
2013-02-02 09:34:00,34.5,28.7,29.65,WNW,299,5.4,5.4,79,0.00,,,0.00,VWS V13.01,2013-02-02 15:34:00,
2013-02-02 09:35:00,34.3,28.5,29.65,WNW,302,3.6,3.6,79,0.00,,,0.00,VWS V13.01,2013-02-02 15:35:00,
2013-02-02 09:39:00,34.5,28.7,29.65,NW,311,4.0,4.0,79,0.00,,,0.00,VWS V13.01,2013-02-02 15:39:00,
2013-02-02 09:40:00,34.7,28.9,29.65,WNW,297,3.6,3.6,79,0.00,,,0.00,VWS V13.01,2013-02-02 15:40:00,
2013-02-02 09:44:00,34.9,29.0,29.65,WNW,284,0.0,0.0,79,0.00,,,0.00,VWS V13.01,2013-02-02 15:44:00,
2013-02-02 09:45:00,34.5,28.7,29.65,WNW,284,0.0,0.0,79,0.00,,,0.00,VWS V13.01,2013-02-02 15:45:00,
2013-02-02 09:49:00,34.7,28.9,29.65,NW,307,0.0,0.0,79,0.00,,,0.00,VWS V13.01,2013-02-02 15:49:00,
2013-02-02 09:50:00,34.5,28.7,29.65,NNW,329,2.7,2.7,79,0.00,,,0.00,VWS V13.01,2013-02-02 15:50:00,
2013-02-02 09:51:00,34.5,28.7,29.65,West,279,4.0,4.0,79,0.00,,,0.00,VWS V13.01,2013-02-02 15:51:00,
2013-02-02 09:54:00,35.2,29.4,29.65,NW,308,4.0,4.0,79,0.00,,,0.00,VWS V13.01,2013-02-02 15:54:00,
2013-02-02 09:55:00,35.2,29.4,29.65,NW,308,3.6,3.6,79,0.00,,,0.00,VWS V13.01,2013-02-02 15:55:00,
2013-02-02 09:56:00,35.4,29.6,29.65,NNW,329,3.1,3.1,79,0.00,,,0.00,VWS V13.01,2013-02-02 15:56:00,
2013-02-02 09:59:00,35.8,33.4,29.65,NW,316,5.4,5.4,91,0.00,,,0.00,VWS V13.01,2013-02-02 15:59:00,
2013-02-02 10:00:00,35.8,33.4,29.65,WNW,303,4.0,4.0,91,0.00,,,0.00,VWS V13.01,2013-02-02 16:00:00,
2013-02-02 10:01:00,35.8,33.4,29.65,WNW,286,4.9,4.9,91,0.00,,,0.00,VWS V13.01,2013-02-02 16:01:00,
2013-02-02 10:04:00,35.6,33.2,29.65,WNW,299,3.1,3.1,91,0.00,,,0.00,VWS V13.01,2013-02-02 16:04:00,
2013-02-02 10:05:00,35.8,33.4,29.65,WNW,301,2.7,2.7,91,0.00,,,0.00,VWS V13.01,2013-02-02 16:05:00,
2013-02-02 10:06:00,36.3,34.0,29.65,WNW,301,3.6,3.6,91,0.00,,,0.00,VWS V13.01,2013-02-02 16:06:00,
2013-02-02 10:09:00,36.0,33.6,29.65,West,270,4.9,4.9,91,0.00,,,0.00,VWS V13.01,2013-02-02 16:09:00,
2013-02-02 10:11:00,36.0,33.6,29.65,WNW,285,5.4,5.4,91,0.00,,,0.00,VWS V13.01,2013-02-02 16:11:00,
2013-02-02 10:14:00,36.3,34.0,29.65,NW,313,5.4,5.4,91,0.00,,,0.00,VWS V13.01,2013-02-02 16:14:00,
2013-02-02 10:16:00,36.9,34.5,29.65,West,275,5.8,5.8,91,0.00,,,0.00,VWS V13.01,2013-02-02 16:16:00,
2013-02-02 10:19:00,37.0,34.7,29.65,WSW,257,5.8,5.8,91,0.00,,,0.00,VWS V13.01,2013-02-02 16:19:00,
2013-02-02 10:21:00,37.6,35.2,29.65,West,267,2.7,2.7,91,0.00,,,0.00,VWS V13.01,2013-02-02 16:21:00,
2013-02-02 10:24:00,37.9,35.5,29.65,West,276,2.2,2.2,91,0.00,,,0.00,VWS V13.01,2013-02-02 16:24:00,
2013-02-02 10:26:00,37.6,35.2,29.65,NW,323,4.9,4.9,91,0.00,,,0.00,VWS V13.01,2013-02-02 16:26:00,
2013-02-02 10:29:00,37.2,34.8,29.68,NW,319,3.1,3.1,91,0.00,,,0.00,VWS V13.01,2013-02-02 16:29:00,
2013-02-02 10:31:00,37.6,35.2,29.68,NW,310,0.0,0.0,91,0.00,,,0.00,VWS V13.01,2013-02-02 16:31:00,
2013-02-02 10:34:00,37.8,35.4,29.68,West,275,3.6,3.6,91,0.00,,,0.00,VWS V13.01,2013-02-02 16:34:00,
2013-02-02 10:36:00,38.3,35.9,29.68,NW,308,0.0,0.0,91,0.00,,,0.00,VWS V13.01,2013-02-02 16:36:00,
2013-02-02 10:39:00,37.8,35.4,29.68,West,263,5.4,5.4,91,0.00,,,0.00,VWS V13.01,2013-02-02 16:39:00,
2013-02-02 10:40:00,37.6,35.2,29.68,West,263,5.4,5.4,91,0.00,,,0.00,VWS V13.01,2013-02-02 16:40:00,
2013-02-02 10:41:00,37.8,35.4,29.68,NW,311,5.8,5.8,91,0.00,,,0.00,VWS V13.01,2013-02-02 16:41:00,
2013-02-02 10:44:00,37.9,35.5,29.68,NW,320,4.0,4.0,91,0.00,,,0.00,VWS V13.01,2013-02-02 16:44:00,
2013-02-02 10:45:00,37.9,35.5,29.68,NW,320,3.1,3.1,91,0.00,,,0.00,VWS V13.01,2013-02-02 16:45:00,
2013-02-02 10:46:00,38.1,35.7,29.68,NW,323,2.7,2.7,91,0.00,,,0.00,VWS V13.01,2013-02-02 16:46:00,
2013-02-02 10:49:00,37.9,35.5,29.68,NW,306,3.1,3.1,91,0.00,,,0.00,VWS V13.01,2013-02-02 16:49:00,
2013-02-02 10:50:00,37.9,35.5,29.68,NW,307,3.6,3.6,91,0.00,,,0.00,VWS V13.01,2013-02-02 16:50:00,
2013-02-02 10:51:00,37.9,35.5,29.68,WNW,290,5.4,5.4,91,0.00,,,0.00,VWS V13.01,2013-02-02 16:51:00,
2013-02-02 10:54:00,38.8,36.4,29.68,WNW,296,7.6,7.6,91,0.00,,,0.00,VWS V13.01,2013-02-02 16:54:00,
2013-02-02 10:55:00,38.7,36.3,29.68,WNW,285,5.4,5.4,91,0.00,,,0.00,VWS V13.01,2013-02-02 16:55:00,
2013-02-02 10:56:00,38.7,36.3,29.68,WNW,289,4.0,4.0,91,0.00,,,0.00,VWS V13.01,2013-02-02 16:56:00,
2013-02-02 10:59:00,38.8,36.4,29.68,WNW,284,3.1,3.1,91,0.00,,,0.00,VWS V13.01,2013-02-02 16:59:00,
2013-02-02 11:00:00,39.2,35.1,29.68,WNW,284,0.0,0.0,85,0.00,,,0.00,VWS V13.01,2013-02-02 17:00:00,
2013-02-02 11:01:00,38.8,36.4,29.68,WNW,293,5.8,5.8,91,0.00,,,0.00,VWS V13.01,2013-02-02 17:01:00,
2013-02-02 11:04:00,38.8,36.4,29.68,WNW,285,0.0,0.0,91,0.00,,,0.00,VWS V13.01,2013-02-02 17:04:00,
2013-02-02 11:05:00,38.8,36.4,29.68,West,268,2.7,2.7,91,0.00,,,0.00,VWS V13.01,2013-02-02 17:05:00,
2013-02-02 11:06:00,38.8,36.4,29.68,WNW,294,5.8,5.8,91,0.00,,,0.00,VWS V13.01,2013-02-02 17:06:00,
2013-02-02 11:09:00,39.2,35.1,29.68,NW,310,5.4,5.4,85,0.00,,,0.00,VWS V13.01,2013-02-02 17:09:00,
2013-02-02 11:10:00,39.2,35.1,29.68,WNW,292,4.0,4.0,85,0.00,,,0.00,VWS V13.01,2013-02-02 17:10:00,
2013-02-02 11:11:00,39.2,35.1,29.68,WNW,300,0.0,0.0,85,0.00,,,0.00,VWS V13.01,2013-02-02 17:11:00,
2013-02-02 11:14:00,39.2,35.1,29.68,NW,312,4.9,4.9,85,0.00,,,0.00,VWS V13.01,2013-02-02 17:14:00,
2013-02-02 11:15:00,39.2,35.1,29.68,NW,304,2.7,2.7,85,0.00,,,0.00,VWS V13.01,2013-02-02 17:15:00,
2013-02-02 11:16:00,39.6,35.4,29.68,West,281,0.0,0.0,85,0.00,,,0.00,VWS V13.01,2013-02-02 17:16:00,
2013-02-02 11:19:00,39.4,35.2,29.68,WNW,301,2.2,2.2,85,0.00,,,0.00,VWS V13.01,2013-02-02 17:19:00,
2013-02-02 11:20:00,39.6,35.4,29.68,WNW,301,0.0,0.0,85,0.00,,,0.00,VWS V13.01,2013-02-02 17:20:00,
2013-02-02 11:21:00,39.4,35.2,29.68,NW,306,3.1,3.1,85,0.00,,,0.00,VWS V13.01,2013-02-02 17:21:00,
2013-02-02 11:24:00,39.7,35.6,29.68,NW,308,0.0,0.0,85,0.00,,,0.00,VWS V13.01,2013-02-02 17:24:00,
2013-02-02 11:25:00,39.7,35.6,29.68,NW,308,0.0,0.0,85,0.00,,,0.00,VWS V13.01,2013-02-02 17:25:00,
2013-02-02 11:26:00,39.6,35.4,29.68,West,264,4.0,4.0,85,0.00,,,0.00,VWS V13.01,2013-02-02 17:26:00,
2013-02-02 11:29:00,39.4,35.2,29.68,West,271,0.0,0.0,85,0.00,,,0.00,VWS V13.01,2013-02-02 17:29:00,
2013-02-02 11:30:00,39.4,35.2,29.68,West,271,0.0,0.0,85,0.00,,,0.00,VWS V13.01,2013-02-02 17:30:00,
2013-02-02 11:31:00,39.4,35.2,29.68,West,279,2.2,2.2,85,0.00,,,0.00,VWS V13.01,2013-02-02 17:31:00,
2013-02-02 11:35:00,38.8,36.4,29.68,West,279,3.1,3.1,91,0.00,,,0.00,VWS V13.01,2013-02-02 17:35:00,
2013-02-02 11:36:00,38.7,36.3,29.68,West,270,6.3,6.3,91,0.00,,,0.00,VWS V13.01,2013-02-02 17:36:00,
2013-02-02 11:40:00,38.8,36.4,29.68,NW,319,2.7,2.7,91,0.00,,,0.00,VWS V13.01,2013-02-02 17:40:00,
2013-02-02 11:41:00,38.8,36.4,29.68,WNW,298,4.9,4.9,91,0.00,,,0.00,VWS V13.01,2013-02-02 17:41:00,
2013-02-02 11:42:00,39.0,36.6,29.68,WNW,299,3.1,3.1,91,0.00,,,0.00,VWS V13.01,2013-02-02 17:42:00,
2013-02-02 11:45:00,39.4,35.2,29.68,West,275,2.2,2.2,85,0.00,,,0.00,VWS V13.01,2013-02-02 17:45:00,
2013-02-02 11:46:00,39.7,35.6,29.68,NW,326,4.0,4.0,85,0.00,,,0.00,VWS V13.01,2013-02-02 17:46:00,
2013-02-02 11:47:00,39.7,35.6,29.68,NW,308,5.8,5.8,85,0.00,,,0.00,VWS V13.01,2013-02-02 17:47:00,
2013-02-02 11:50:00,39.7,35.6,29.68,West,265,4.0,4.0,85,0.00,,,0.00,VWS V13.01,2013-02-02 17:50:00,
2013-02-02 11:51:00,40.3,36.1,29.68,West,265,0.0,0.0,85,0.00,,,0.00,VWS V13.01,2013-02-02 17:51:00,
2013-02-02 11:52:00,40.3,36.1,29.68,West,273,6.3,6.3,85,0.00,,,0.00,VWS V13.01,2013-02-02 17:52:00,
2013-02-02 11:55:00,39.9,35.8,29.68,NW,305,0.0,0.0,85,0.00,,,0.00,VWS V13.01,2013-02-02 17:55:00,
2013-02-02 11:56:00,39.6,35.4,29.68,WNW,287,0.0,0.0,85,0.00,,,0.00,VWS V13.01,2013-02-02 17:56:00,
2013-02-02 11:57:00,39.6,35.4,29.68,WNW,285,0.0,0.0,85,0.00,,,0.00,VWS V13.01,2013-02-02 17:57:00,
2013-02-02 12:00:00,39.7,35.6,29.68,WNW,285,2.7,2.7,85,0.00,,,0.00,VWS V13.01,2013-02-02 18:00:00,
2013-02-02 12:01:00,39.7,35.6,29.68,NW,308,4.0,4.0,85,0.00,,,0.00,VWS V13.01,2013-02-02 18:01:00,
2013-02-02 12:02:00,39.6,35.4,29.68,West,280,5.8,5.8,85,0.00,,,0.00,VWS V13.01,2013-02-02 18:02:00,
2013-02-02 12:05:00,39.6,35.4,29.68,West,271,2.7,2.7,85,0.00,,,0.00,VWS V13.01,2013-02-02 18:05:00,
2013-02-02 12:06:00,39.4,35.2,29.68,WNW,300,5.4,5.4,85,0.00,,,0.00,VWS V13.01,2013-02-02 18:06:00,
2013-02-02 12:07:00,39.4,35.2,29.68,West,274,3.6,3.6,85,0.00,,,0.00,VWS V13.01,2013-02-02 18:07:00,
2013-02-02 12:10:00,39.4,35.2,29.68,West,266,4.0,4.0,85,0.00,,,0.00,VWS V13.01,2013-02-02 18:10:00,
2013-02-02 12:11:00,39.4,35.2,29.68,West,275,4.0,4.0,85,0.00,,,0.00,VWS V13.01,2013-02-02 18:11:00,
2013-02-02 12:12:00,39.4,35.2,29.68,NW,310,5.8,5.8,85,0.00,,,0.00,VWS V13.01,2013-02-02 18:12:00,
2013-02-02 12:15:00,39.9,35.8,29.68,West,268,6.7,6.7,85,0.00,,,0.00,VWS V13.01,2013-02-02 18:15:00,
2013-02-02 12:16:00,39.9,35.8,29.68,WNW,292,0.0,0.0,85,0.00,,,0.00,VWS V13.01,2013-02-02 18:16:00,
2013-02-02 12:17:00,39.9,35.8,29.68,WNW,282,4.0,4.0,85,0.00,,,0.00,VWS V13.01,2013-02-02 18:17:00,
2013-02-02 12:20:00,39.9,35.8,29.68,West,280,4.0,4.0,85,0.00,,,0.00,VWS V13.01,2013-02-02 18:20:00,
2013-02-02 12:21:00,40.1,36.0,29.68,West,280,3.1,3.1,85,0.00,,,0.00,VWS V13.01,2013-02-02 18:21:00,
2013-02-02 12:22:00,40.1,36.0,29.68,West,280,4.0,4.0,85,0.00,,,0.00,VWS V13.01,2013-02-02 18:22:00,
2013-02-02 12:25:00,39.7,35.6,29.68,West,264,7.6,7.6,85,0.00,,,0.00,VWS V13.01,2013-02-02 18:25:00,
2013-02-02 12:26:00,39.9,35.8,29.68,WNW,284,4.0,4.0,85,0.00,,,0.00,VWS V13.01,2013-02-02 18:26:00,
2013-02-02 12:27:00,40.1,36.0,29.65,West,275,3.6,3.6,85,0.00,,,0.00,VWS V13.01,2013-02-02 18:27:00,
2013-02-02 12:30:00,40.1,36.0,29.65,West,272,3.1,3.1,85,0.00,,,0.00,VWS V13.01,2013-02-02 18:30:00,
2013-02-02 12:31:00,40.1,36.0,29.65,West,273,0.0,0.0,85,0.00,,,0.00,VWS V13.01,2013-02-02 18:31:00,
2013-02-02 12:32:00,40.5,36.3,29.65,West,273,0.0,0.0,85,0.00,,,0.00,VWS V13.01,2013-02-02 18:32:00,
2013-02-02 12:35:00,40.6,36.5,29.65,West,275,0.0,0.0,85,0.00,,,0.00,VWS V13.01,2013-02-02 18:35:00,
2013-02-02 12:37:00,41.7,37.5,29.65,West,268,0.0,0.0,85,0.00,,,0.00,VWS V13.01,2013-02-02 18:37:00,
2013-02-02 12:40:00,42.1,37.9,29.65,West,277,2.2,2.2,85,0.00,,,0.00,VWS V13.01,2013-02-02 18:40:00,
2013-02-02 12:42:00,42.4,38.3,29.65,WSW,253,0.0,0.0,85,0.00,,,0.00,VWS V13.01,2013-02-02 18:42:00,
2013-02-02 12:45:00,42.6,38.4,29.65,West,275,2.7,2.7,85,0.00,,,0.00,VWS V13.01,2013-02-02 18:45:00,
2013-02-02 12:46:00,42.6,38.4,29.65,West,275,3.1,3.1,85,0.00,,,0.00,VWS V13.01,2013-02-02 18:46:00,
2013-02-02 12:47:00,42.1,37.9,29.65,West,276,5.8,5.8,85,0.00,,,0.00,VWS V13.01,2013-02-02 18:47:00,
2013-02-02 12:48:00,41.7,37.5,29.65,West,276,2.2,2.2,85,0.00,,,0.00,VWS V13.01,2013-02-02 18:48:00,
2013-02-02 12:50:00,43.2,39.0,29.65,SW,228,0.0,0.0,85,0.00,,,0.00,VWS V13.01,2013-02-02 18:50:00,
2013-02-02 12:51:00,43.2,39.0,29.65,West,273,3.6,3.6,85,0.00,,,0.00,VWS V13.01,2013-02-02 18:51:00,
2013-02-02 12:52:00,43.3,39.1,29.65,WNW,301,3.6,3.6,85,0.00,,,0.00,VWS V13.01,2013-02-02 18:52:00,
2013-02-02 12:53:00,43.0,38.8,29.65,WNW,286,0.0,0.0,85,0.00,,,0.00,VWS V13.01,2013-02-02 18:53:00,
2013-02-02 12:55:00,44.6,38.5,29.65,WSW,258,0.0,0.0,79,0.00,,,0.00,VWS V13.01,2013-02-02 18:55:00,
2013-02-02 12:56:00,44.6,38.5,29.65,WSW,258,0.0,0.0,79,0.00,,,0.00,VWS V13.01,2013-02-02 18:56:00,
2013-02-02 12:57:00,44.2,40.0,29.65,WNW,287,8.1,8.1,85,0.00,,,0.00,VWS V13.01,2013-02-02 18:57:00,
2013-02-02 12:58:00,42.4,38.3,29.65,WNW,301,4.0,4.0,85,0.00,,,0.00,VWS V13.01,2013-02-02 18:58:00,
2013-02-02 13:00:00,42.6,38.4,29.65,West,268,2.2,2.2,85,0.00,,,0.00,VWS V13.01,2013-02-02 19:00:00,
2013-02-02 13:01:00,42.6,38.4,29.65,West,268,0.0,0.0,85,0.00,,,0.00,VWS V13.01,2013-02-02 19:01:00,
2013-02-02 13:02:00,43.2,39.0,29.65,WSW,258,2.7,2.7,85,0.00,,,0.00,VWS V13.01,2013-02-02 19:02:00,
2013-02-02 13:03:00,43.5,39.3,29.65,West,277,3.6,3.6,85,0.00,,,0.00,VWS V13.01,2013-02-02 19:03:00,
2013-02-02 13:05:00,42.8,38.6,29.65,WNW,285,0.0,0.0,85,0.00,,,0.00,VWS V13.01,2013-02-02 19:05:00,
2013-02-02 13:06:00,43.7,39.5,29.65,WNW,285,0.0,0.0,85,0.00,,,0.00,VWS V13.01,2013-02-02 19:06:00,
2013-02-02 13:07:00,44.2,40.0,29.65,West,267,0.0,0.0,85,0.00,,,0.00,VWS V13.01,2013-02-02 19:07:00,
2013-02-02 13:08:00,44.8,38.7,29.65,West,266,0.0,0.0,79,0.00,,,0.00,VWS V13.01,2013-02-02 19:08:00,
2013-02-02 13:10:00,45.0,38.8,29.65,NW,315,3.1,3.1,79,0.00,,,0.00,VWS V13.01,2013-02-02 19:10:00,
2013-02-02 13:11:00,44.4,40.2,29.65,WNW,290,6.3,6.3,85,0.00,,,0.00,VWS V13.01,2013-02-02 19:11:00,
2013-02-02 13:12:00,43.9,39.7,29.65,WNW,293,3.1,3.1,85,0.00,,,0.00,VWS V13.01,2013-02-02 19:12:00,
2013-02-02 13:13:00,43.7,39.5,29.65,WNW,289,2.7,2.7,85,0.00,,,0.00,VWS V13.01,2013-02-02 19:13:00,
2013-02-02 13:15:00,43.0,38.8,29.65,West,273,5.8,5.8,85,0.00,,,0.00,VWS V13.01,2013-02-02 19:15:00,
2013-02-02 13:16:00,43.3,39.1,29.65,WNW,284,5.4,5.4,85,0.00,,,0.00,VWS V13.01,2013-02-02 19:16:00,
2013-02-02 13:17:00,42.8,38.6,29.65,West,268,4.9,4.9,85,0.00,,,0.00,VWS V13.01,2013-02-02 19:17:00,
2013-02-02 13:18:00,42.8,38.6,29.65,WNW,288,0.0,0.0,85,0.00,,,0.00,VWS V13.01,2013-02-02 19:18:00,
2013-02-02 13:20:00,43.7,39.5,29.65,WNW,292,3.6,3.6,85,0.00,,,0.00,VWS V13.01,2013-02-02 19:20:00,
2013-02-02 13:21:00,43.7,39.5,29.65,WNW,286,3.6,3.6,85,0.00,,,0.00,VWS V13.01,2013-02-02 19:21:00,
2013-02-02 13:22:00,43.3,39.1,29.65,WSW,245,4.9,4.9,85,0.00,,,0.00,VWS V13.01,2013-02-02 19:22:00,
2013-02-02 13:23:00,44.1,39.8,29.65,West,263,3.1,3.1,85,0.00,,,0.00,VWS V13.01,2013-02-02 19:23:00,
2013-02-02 13:25:00,43.0,38.8,29.65,West,277,5.8,5.8,85,0.00,,,0.00,VWS V13.01,2013-02-02 19:25:00,
2013-02-02 13:26:00,43.0,38.8,29.65,West,275,3.6,3.6,85,0.00,,,0.00,VWS V13.01,2013-02-02 19:26:00,
2013-02-02 13:27:00,42.4,38.3,29.65,WNW,288,8.7,8.7,85,0.00,,,0.00,VWS V13.01,2013-02-02 19:27:00,
2013-02-02 13:28:00,42.8,38.6,29.65,NW,312,3.6,3.6,85,0.00,,,0.00,VWS V13.01,2013-02-02 19:28:00,
2013-02-02 13:30:00,43.9,39.7,29.65,West,275,2.2,2.2,85,0.00,,,0.00,VWS V13.01,2013-02-02 19:30:00,
2013-02-02 13:31:00,43.9,39.7,29.65,WNW,283,3.6,3.6,85,0.00,,,0.00,VWS V13.01,2013-02-02 19:31:00,
2013-02-02 13:32:00,44.6,38.5,29.65,WSW,242,4.9,4.9,79,0.00,,,0.00,VWS V13.01,2013-02-02 19:32:00,
2013-02-02 13:33:00,44.1,39.8,29.65,NNW,334,8.1,8.1,85,0.00,,,0.00,VWS V13.01,2013-02-02 19:33:00,
2013-02-02 13:36:00,44.8,38.7,29.65,WSW,242,3.6,3.6,79,0.00,,,0.00,VWS V13.01,2013-02-02 19:36:00,
2013-02-02 13:37:00,44.1,39.8,29.65,SW,229,5.8,5.8,85,0.00,,,0.00,VWS V13.01,2013-02-02 19:37:00,
2013-02-02 13:38:00,44.2,40.0,29.65,West,274,5.4,5.4,85,0.00,,,0.00,VWS V13.01,2013-02-02 19:38:00,
2013-02-02 13:41:00,43.5,39.3,29.65,WNW,293,3.1,3.1,85,0.00,,,0.00,VWS V13.01,2013-02-02 19:41:00,
2013-02-02 13:42:00,43.3,39.1,29.65,WSW,250,5.8,5.8,85,0.00,,,0.00,VWS V13.01,2013-02-02 19:42:00,
2013-02-02 13:43:00,43.2,39.0,29.65,West,268,4.0,4.0,85,0.00,,,0.00,VWS V13.01,2013-02-02 19:43:00,
2013-02-02 13:46:00,44.1,39.8,29.65,West,260,5.8,5.8,85,0.00,,,0.00,VWS V13.01,2013-02-02 19:46:00,
2013-02-02 13:48:00,43.9,39.7,29.65,NW,304,0.0,0.0,85,0.00,,,0.00,VWS V13.01,2013-02-02 19:48:00,
2013-02-02 13:51:00,45.3,39.2,29.65,West,259,2.7,2.7,79,0.00,,,0.00,VWS V13.01,2013-02-02 19:51:00,
2013-02-02 13:53:00,44.6,38.5,29.65,WNW,297,7.6,7.6,79,0.00,,,0.00,VWS V13.01,2013-02-02 19:53:00,
2013-02-02 13:56:00,44.6,38.5,29.65,West,270,4.0,4.0,79,0.00,,,0.00,VWS V13.01,2013-02-02 19:56:00,
2013-02-02 13:58:00,44.1,39.8,29.65,NW,308,4.9,4.9,85,0.00,,,0.00,VWS V13.01,2013-02-02 19:58:00,
2013-02-02 14:01:00,44.4,40.2,29.65,WSW,241,5.8,5.8,85,0.00,,,0.00,VWS V13.01,2013-02-02 20:01:00,
2013-02-02 14:03:00,45.0,38.8,29.65,WNW,302,5.4,5.4,79,0.00,,,0.00,VWS V13.01,2013-02-02 20:03:00,
2013-02-02 14:06:00,45.1,39.0,29.65,West,266,4.9,4.9,79,0.00,,,0.00,VWS V13.01,2013-02-02 20:06:00,
2013-02-02 14:08:00,46.0,39.9,29.65,WSW,243,3.1,3.1,79,0.00,,,0.00,VWS V13.01,2013-02-02 20:08:00,
2013-02-02 14:11:00,45.3,39.2,29.65,WNW,297,6.3,6.3,79,0.00,,,0.00,VWS V13.01,2013-02-02 20:11:00,
2013-02-02 14:13:00,45.0,38.8,29.65,WNW,289,5.8,5.8,79,0.00,,,0.00,VWS V13.01,2013-02-02 20:13:00,
2013-02-02 14:16:00,45.9,39.7,29.65,WSW,249,4.0,4.0,79,0.00,,,0.00,VWS V13.01,2013-02-02 20:16:00,
2013-02-02 14:18:00,45.7,39.5,29.65,WNW,287,6.7,6.7,79,0.00,,,0.00,VWS V13.01,2013-02-02 20:18:00,
2013-02-02 14:21:00,45.5,39.4,29.65,West,262,2.7,2.7,79,0.00,,,0.00,VWS V13.01,2013-02-02 20:21:00,
2013-02-02 14:23:00,45.7,39.5,29.65,WSW,255,5.8,5.8,79,0.00,,,0.00,VWS V13.01,2013-02-02 20:23:00,
2013-02-02 14:26:00,45.3,39.2,29.65,WSW,244,6.3,6.3,79,0.00,,,0.00,VWS V13.01,2013-02-02 20:26:00,
2013-02-02 14:27:00,45.1,39.0,29.65,West,277,6.3,6.3,79,0.00,,,0.00,VWS V13.01,2013-02-02 20:27:00,
2013-02-02 14:28:00,45.1,39.0,29.65,WSW,255,5.4,5.4,79,0.00,,,0.00,VWS V13.01,2013-02-02 20:28:00,
2013-02-02 14:31:00,45.7,39.5,29.65,WNW,293,3.6,3.6,79,0.00,,,0.00,VWS V13.01,2013-02-02 20:31:00,
2013-02-02 14:32:00,46.4,40.2,29.65,WNW,293,0.0,0.0,79,0.00,,,0.00,VWS V13.01,2013-02-02 20:32:00,
2013-02-02 14:33:00,46.4,40.2,29.65,WNW,287,4.0,4.0,79,0.00,,,0.00,VWS V13.01,2013-02-02 20:33:00,
2013-02-02 14:36:00,46.0,39.9,29.65,WNW,283,10.1,10.1,79,0.00,,,0.00,VWS V13.01,2013-02-02 20:36:00,
2013-02-02 14:37:00,45.7,39.5,29.65,West,260,4.9,4.9,79,0.00,,,0.00,VWS V13.01,2013-02-02 20:37:00,
2013-02-02 14:38:00,45.5,39.4,29.65,WSW,251,8.7,8.7,79,0.00,,,0.00,VWS V13.01,2013-02-02 20:38:00,
2013-02-02 14:41:00,45.5,39.4,29.65,West,268,4.9,4.9,79,0.00,,,0.00,VWS V13.01,2013-02-02 20:41:00,
2013-02-02 14:42:00,45.7,39.5,29.65,West,267,0.0,0.0,79,0.00,,,0.00,VWS V13.01,2013-02-02 20:42:00,
2013-02-02 14:43:00,45.7,39.5,29.65,WSW,239,3.1,3.1,79,0.00,,,0.00,VWS V13.01,2013-02-02 20:43:00,
2013-02-02 14:46:00,45.9,39.7,29.65,WNW,282,8.3,8.3,79,0.00,,,0.00,VWS V13.01,2013-02-02 20:46:00,
2013-02-02 14:47:00,45.9,39.7,29.65,West,260,5.8,5.8,79,0.00,,,0.00,VWS V13.01,2013-02-02 20:47:00,
2013-02-02 14:48:00,45.7,39.5,29.65,NW,312,5.8,5.8,79,0.00,,,0.00,VWS V13.01,2013-02-02 20:48:00,
2013-02-02 14:51:00,45.5,39.4,29.65,West,270,3.6,3.6,79,0.00,,,0.00,VWS V13.01,2013-02-02 20:51:00,
2013-02-02 14:52:00,45.7,39.5,29.65,West,259,2.7,2.7,79,0.00,,,0.00,VWS V13.01,2013-02-02 20:52:00,
2013-02-02 14:53:00,46.4,40.2,29.65,West,261,3.1,3.1,79,0.00,,,0.00,VWS V13.01,2013-02-02 20:53:00,
2013-02-02 14:54:00,46.4,40.2,29.65,West,261,3.1,3.1,79,0.00,,,0.00,VWS V13.01,2013-02-02 20:54:00,
2013-02-02 14:56:00,46.4,40.2,29.65,West,270,2.7,2.7,79,0.00,,,0.00,VWS V13.01,2013-02-02 20:56:00,
2013-02-02 14:57:00,46.9,40.8,29.65,WNW,286,4.9,4.9,79,0.00,,,0.00,VWS V13.01,2013-02-02 20:57:00,
2013-02-02 14:58:00,46.8,40.6,29.65,West,275,4.0,4.0,79,0.00,,,0.00,VWS V13.01,2013-02-02 20:58:00,
2013-02-02 14:59:00,46.6,40.4,29.65,West,280,7.2,7.2,79,0.00,,,0.00,VWS V13.01,2013-02-02 20:59:00,
2013-02-02 15:01:00,46.8,40.6,29.65,WSW,246,2.7,2.7,79,0.00,,,0.00,VWS V13.01,2013-02-02 21:01:00,
2013-02-02 15:02:00,46.9,40.8,29.65,SW,219,3.6,3.6,79,0.00,,,0.00,VWS V13.01,2013-02-02 21:02:00,
2013-02-02 15:03:00,46.8,40.6,29.65,West,271,2.7,2.7,79,0.00,,,0.00,VWS V13.01,2013-02-02 21:03:00,
2013-02-02 15:06:00,46.8,40.6,29.65,West,269,2.7,2.7,79,0.00,,,0.00,VWS V13.01,2013-02-02 21:06:00,
2013-02-02 15:07:00,46.9,40.8,29.65,WSW,242,3.1,3.1,79,0.00,,,0.00,VWS V13.01,2013-02-02 21:07:00,
2013-02-02 15:08:00,46.8,40.6,29.65,West,260,3.6,3.6,79,0.00,,,0.00,VWS V13.01,2013-02-02 21:08:00,
2013-02-02 15:09:00,46.8,40.6,29.65,SW,220,4.9,4.9,79,0.00,,,0.00,VWS V13.01,2013-02-02 21:09:00,
2013-02-02 15:12:00,47.1,41.0,29.65,West,263,4.9,4.9,79,0.00,,,0.00,VWS V13.01,2013-02-02 21:12:00,
2013-02-02 15:13:00,46.8,40.6,29.65,WSW,244,4.0,4.0,79,0.00,,,0.00,VWS V13.01,2013-02-02 21:13:00,
2013-02-02 15:14:00,46.8,40.6,29.65,WSW,244,3.1,3.1,79,0.00,,,0.00,VWS V13.01,2013-02-02 21:14:00,
2013-02-02 15:17:00,46.9,40.8,29.65,WSW,246,0.0,0.0,79,0.00,,,0.00,VWS V13.01,2013-02-02 21:17:00,
2013-02-02 15:18:00,46.9,40.8,29.65,WSW,241,4.9,4.9,79,0.00,,,0.00,VWS V13.01,2013-02-02 21:18:00,
2013-02-02 15:19:00,46.9,40.8,29.65,WSW,242,4.0,4.0,79,0.00,,,0.00,VWS V13.01,2013-02-02 21:19:00,
2013-02-02 15:22:00,46.6,40.4,29.65,West,270,3.1,3.1,79,0.00,,,0.00,VWS V13.01,2013-02-02 21:22:00,
2013-02-02 15:24:00,46.6,40.4,29.65,West,279,7.6,7.6,79,0.00,,,0.00,VWS V13.01,2013-02-02 21:24:00,
2013-02-02 15:27:00,47.1,41.0,29.65,SW,231,0.0,0.0,79,0.00,,,0.00,VWS V13.01,2013-02-02 21:27:00,
2013-02-02 15:29:00,47.1,41.0,29.65,NW,306,4.0,4.0,79,0.00,,,0.00,VWS V13.01,2013-02-02 21:29:00,
2013-02-02 15:32:00,46.6,40.4,29.65,NW,317,7.2,7.2,79,0.00,,,0.00,VWS V13.01,2013-02-02 21:32:00,
2013-02-02 15:34:00,46.6,40.4,29.65,West,275,3.1,3.1,79,0.00,,,0.00,VWS V13.01,2013-02-02 21:34:00,
2013-02-02 15:37:00,46.6,40.4,29.65,West,281,0.0,0.0,79,0.00,,,0.00,VWS V13.01,2013-02-02 21:37:00,
2013-02-02 15:38:00,46.8,40.6,29.65,West,281,2.7,2.7,79,0.00,,,0.00,VWS V13.01,2013-02-02 21:38:00,
2013-02-02 15:39:00,46.8,40.6,29.65,West,281,0.0,0.0,79,0.00,,,0.00,VWS V13.01,2013-02-02 21:39:00,
2013-02-02 15:42:00,46.9,40.8,29.65,WNW,290,3.1,3.1,79,0.00,,,0.00,VWS V13.01,2013-02-02 21:42:00,
2013-02-02 15:43:00,46.8,40.6,29.65,West,270,3.6,3.6,79,0.00,,,0.00,VWS V13.01,2013-02-02 21:43:00,
2013-02-02 15:44:00,46.8,40.6,29.65,West,270,3.1,3.1,79,0.00,,,0.00,VWS V13.01,2013-02-02 21:44:00,
2013-02-02 15:47:00,46.6,40.4,29.65,WNW,286,4.0,4.0,79,0.00,,,0.00,VWS V13.01,2013-02-02 21:47:00,
2013-02-02 15:48:00,46.6,40.4,29.65,WNW,294,0.0,0.0,79,0.00,,,0.00,VWS V13.01,2013-02-02 21:48:00,
2013-02-02 15:49:00,46.8,40.6,29.65,WNW,294,0.0,0.0,79,0.00,,,0.00,VWS V13.01,2013-02-02 21:49:00,
2013-02-02 15:52:00,46.9,40.8,29.65,WSW,254,3.1,3.1,79,0.00,,,0.00,VWS V13.01,2013-02-02 21:52:00,
2013-02-02 15:53:00,47.7,41.5,29.65,NW,322,2.7,2.7,79,0.00,,,0.00,VWS V13.01,2013-02-02 21:53:00,
2013-02-02 15:54:00,48.0,41.8,29.65,NW,305,0.0,0.0,79,0.00,,,0.00,VWS V13.01,2013-02-02 21:54:00,
2013-02-02 15:57:00,48.4,40.1,29.65,NNW,341,6.3,6.3,73,0.00,,,0.00,VWS V13.01,2013-02-02 21:57:00,
2013-02-02 15:58:00,47.5,41.3,29.65,NNW,327,8.1,8.1,79,0.00,,,0.00,VWS V13.01,2013-02-02 21:58:00,
2013-02-02 15:59:00,47.7,41.5,29.65,NNW,333,5.4,5.4,79,0.00,,,0.00,VWS V13.01,2013-02-02 21:59:00,
2013-02-02 16:02:00,46.8,40.6,29.65,West,272,5.8,5.8,79,0.00,,,0.00,VWS V13.01,2013-02-02 22:02:00,
2013-02-02 16:03:00,46.6,40.4,29.65,West,273,7.6,7.6,79,0.00,,,0.00,VWS V13.01,2013-02-02 22:03:00,
2013-02-02 16:04:00,46.6,40.4,29.65,West,270,5.8,5.8,79,0.00,,,0.00,VWS V13.01,2013-02-02 22:04:00,
2013-02-02 16:07:00,46.8,40.6,29.65,WNW,300,0.0,0.0,79,0.00,,,0.00,VWS V13.01,2013-02-02 22:07:00,
2013-02-02 16:08:00,46.9,40.8,29.65,WNW,302,3.6,3.6,79,0.00,,,0.00,VWS V13.01,2013-02-02 22:08:00,
2013-02-02 16:09:00,46.9,40.8,29.65,WNW,290,4.0,4.0,79,0.00,,,0.00,VWS V13.01,2013-02-02 22:09:00,
2013-02-02 16:12:00,46.2,40.1,29.62,WNW,302,7.6,7.6,79,0.00,,,0.00,VWS V13.01,2013-02-02 22:12:00,
2013-02-02 16:13:00,46.4,40.2,29.62,West,276,5.4,5.4,79,0.00,,,0.00,VWS V13.01,2013-02-02 22:13:00,
2013-02-02 16:14:00,46.4,40.2,29.62,NNW,331,3.6,3.6,79,0.00,,,0.00,VWS V13.01,2013-02-02 22:14:00,
2013-02-02 16:17:00,46.2,40.1,29.62,West,267,0.0,0.0,79,0.00,,,0.00,VWS V13.01,2013-02-02 22:17:00,
2013-02-02 16:18:00,46.2,40.1,29.62,West,267,0.0,0.0,79,0.00,,,0.00,VWS V13.01,2013-02-02 22:18:00,
2013-02-02 16:19:00,46.2,40.1,29.62,WNW,287,5.4,5.4,79,0.00,,,0.00,VWS V13.01,2013-02-02 22:19:00,
2013-02-02 16:22:00,46.9,40.8,29.62,West,266,0.0,0.0,79,0.00,,,0.00,VWS V13.01,2013-02-02 22:22:00,
2013-02-02 16:23:00,47.1,41.0,29.62,West,265,5.4,5.4,79,0.00,,,0.00,VWS V13.01,2013-02-02 22:23:00,
2013-02-02 16:24:00,47.3,41.1,29.62,WNW,295,3.6,3.6,79,0.00,,,0.00,VWS V13.01,2013-02-02 22:24:00,
2013-02-02 16:27:00,47.7,41.5,29.62,NW,310,0.0,0.0,79,0.00,,,0.00,VWS V13.01,2013-02-02 22:27:00,
2013-02-02 16:28:00,47.8,41.7,29.65,NW,316,4.0,4.0,79,0.00,,,0.00,VWS V13.01,2013-02-02 22:28:00,
2013-02-02 16:29:00,47.8,41.7,29.65,NW,305,2.7,2.7,79,0.00,,,0.00,VWS V13.01,2013-02-02 22:29:00,
2013-02-02 16:30:00,47.7,41.5,29.65,WNW,293,5.8,5.8,79,0.00,,,0.00,VWS V13.01,2013-02-02 22:30:00,
2013-02-02 16:31:00,47.3,41.1,29.65,WNW,287,5.8,5.8,79,0.00,,,0.00,VWS V13.01,2013-02-02 22:31:00,
2013-02-02 16:32:00,47.1,41.0,29.65,WNW,292,3.6,3.6,79,0.00,,,0.00,VWS V13.01,2013-02-02 22:32:00,
2013-02-02 16:33:00,47.1,41.0,29.65,NW,320,0.0,0.0,79,0.00,,,0.00,VWS V13.01,2013-02-02 22:33:00,
2013-02-02 16:34:00,47.1,41.0,29.65,NW,311,0.0,0.0,79,0.00,,,0.00,VWS V13.01,2013-02-02 22:34:00,
2013-02-02 16:35:00,46.9,40.8,29.65,West,272,3.1,3.1,79,0.00,,,0.00,VWS V13.01,2013-02-02 22:35:00,
2013-02-02 16:36:00,46.8,40.6,29.65,West,278,5.8,5.8,79,0.00,,,0.00,VWS V13.01,2013-02-02 22:36:00,
2013-02-02 16:37:00,46.6,40.4,29.65,West,263,0.0,0.0,79,0.00,,,0.00,VWS V13.01,2013-02-02 22:37:00,
2013-02-02 16:38:00,46.2,40.1,29.65,West,263,0.0,0.0,79,0.00,,,0.00,VWS V13.01,2013-02-02 22:38:00,
2013-02-02 16:39:00,46.2,40.1,29.65,West,263,0.0,0.0,79,0.00,,,0.00,VWS V13.01,2013-02-02 22:39:00,
2013-02-02 16:40:00,46.0,39.9,29.65,West,278,2.7,2.7,79,0.00,,,0.00,VWS V13.01,2013-02-02 22:40:00,
2013-02-02 16:41:00,46.0,39.9,29.65,WNW,299,2.7,2.7,79,0.00,,,0.00,VWS V13.01,2013-02-02 22:41:00,
2013-02-02 16:42:00,46.0,39.9,29.65,WNW,290,0.0,0.0,79,0.00,,,0.00,VWS V13.01,2013-02-02 22:42:00,
2013-02-02 16:43:00,45.9,39.7,29.65,WNW,293,0.0,0.0,79,0.00,,,0.00,VWS V13.01,2013-02-02 22:43:00,
2013-02-02 16:44:00,45.9,39.7,29.65,WNW,293,0.0,0.0,79,0.00,,,0.00,VWS V13.01,2013-02-02 22:44:00,
2013-02-02 16:45:00,46.0,39.9,29.65,WNW,293,0.0,0.0,79,0.00,,,0.00,VWS V13.01,2013-02-02 22:45:00,
2013-02-02 16:46:00,46.0,39.9,29.65,WNW,293,0.0,0.0,79,0.00,,,0.00,VWS V13.01,2013-02-02 22:46:00,
2013-02-02 16:47:00,46.4,40.2,29.65,West,276,4.0,4.0,79,0.00,,,0.00,VWS V13.01,2013-02-02 22:47:00,
2013-02-02 16:48:00,46.4,40.2,29.65,West,280,0.0,0.0,79,0.00,,,0.00,VWS V13.01,2013-02-02 22:48:00,
2013-02-02 16:49:00,46.4,40.2,29.65,West,280,2.7,2.7,79,0.00,,,0.00,VWS V13.01,2013-02-02 22:49:00,
2013-02-02 16:50:00,46.4,40.2,29.65,WNW,302,3.1,3.1,79,0.00,,,0.00,VWS V13.01,2013-02-02 22:50:00,
2013-02-02 16:51:00,46.2,40.1,29.65,NW,315,4.0,4.0,79,0.00,,,0.00,VWS V13.01,2013-02-02 22:51:00,
2013-02-02 16:52:00,46.2,40.1,29.65,WNW,285,4.0,4.0,79,0.00,,,0.00,VWS V13.01,2013-02-02 22:52:00,
2013-02-02 16:53:00,46.2,40.1,29.65,West,281,0.0,0.0,79,0.00,,,0.00,VWS V13.01,2013-02-02 22:53:00,
2013-02-02 16:54:00,46.0,39.9,29.65,West,266,3.6,3.6,79,0.00,,,0.00,VWS V13.01,2013-02-02 22:54:00,
2013-02-02 16:55:00,46.0,39.9,29.65,WNW,282,3.1,3.1,79,0.00,,,0.00,VWS V13.01,2013-02-02 22:55:00,
2013-02-02 16:56:00,46.2,40.1,29.65,WNW,283,0.0,0.0,79,0.00,,,0.00,VWS V13.01,2013-02-02 22:56:00,
2013-02-02 16:57:00,46.2,40.1,29.62,WNW,283,0.0,0.0,79,0.00,,,0.00,VWS V13.01,2013-02-02 22:57:00,
2013-02-02 16:58:00,46.2,40.1,29.62,WNW,283,0.0,0.0,79,0.00,,,0.00,VWS V13.01,2013-02-02 22:58:00,
2013-02-02 16:59:00,46.2,40.1,29.62,WNW,283,0.0,0.0,79,0.00,,,0.00,VWS V13.01,2013-02-02 22:59:00,
2013-02-02 17:00:00,46.2,40.1,29.62,WNW,283,0.0,0.0,79,0.00,,,0.00,VWS V13.01,2013-02-02 23:00:00,
2013-02-02 17:01:00,46.2,40.1,29.62,WNW,283,0.0,0.0,79,0.00,,,0.00,VWS V13.01,2013-02-02 23:01:00,
2013-02-02 17:02:00,46.2,40.1,29.62,WNW,283,0.0,0.0,79,0.00,,,0.00,VWS V13.01,2013-02-02 23:02:00,
2013-02-02 17:03:00,46.0,39.9,29.62,WNW,283,0.0,0.0,79,0.00,,,0.00,VWS V13.01,2013-02-02 23:03:00,
2013-02-02 17:04:00,45.9,39.7,29.62,WNW,283,0.0,0.0,79,0.00,,,0.00,VWS V13.01,2013-02-02 23:04:00,
2013-02-02 17:05:00,45.7,39.5,29.62,WNW,283,0.0,0.0,79,0.00,,,0.00,VWS V13.01,2013-02-02 23:05:00,
2013-02-02 17:06:00,45.3,39.2,29.62,WNW,283,0.0,0.0,79,0.00,,,0.00,VWS V13.01,2013-02-02 23:06:00,
2013-02-02 17:07:00,45.0,38.8,29.62,WNW,283,0.0,0.0,79,0.00,,,0.00,VWS V13.01,2013-02-02 23:07:00,
2013-02-02 17:08:00,44.8,38.7,29.62,WNW,283,0.0,0.0,79,0.00,,,0.00,VWS V13.01,2013-02-02 23:08:00,
2013-02-02 17:09:00,44.6,38.5,29.62,WNW,283,0.0,0.0,79,0.00,,,0.00,VWS V13.01,2013-02-02 23:09:00,
2013-02-02 17:10:00,44.2,40.0,29.62,WNW,283,0.0,0.0,85,0.00,,,0.00,VWS V13.01,2013-02-02 23:10:00,
2013-02-02 17:11:00,43.9,39.7,29.62,WNW,283,0.0,0.0,85,0.00,,,0.00,VWS V13.01,2013-02-02 23:11:00,
2013-02-02 17:12:00,43.5,39.3,29.62,WNW,283,0.0,0.0,85,0.00,,,0.00,VWS V13.01,2013-02-02 23:12:00,
2013-02-02 17:13:00,43.3,39.1,29.62,WNW,283,0.0,0.0,85,0.00,,,0.00,VWS V13.01,2013-02-02 23:13:00,
2013-02-02 17:14:00,43.3,39.1,29.62,WNW,283,0.0,0.0,85,0.00,,,0.00,VWS V13.01,2013-02-02 23:14:00,
2013-02-02 17:15:00,43.2,39.0,29.62,WNW,283,0.0,0.0,85,0.00,,,0.00,VWS V13.01,2013-02-02 23:15:00,
2013-02-02 17:16:00,43.2,39.0,29.62,WNW,283,0.0,0.0,85,0.00,,,0.00,VWS V13.01,2013-02-02 23:16:00,
2013-02-02 17:17:00,43.0,38.8,29.62,WNW,283,0.0,0.0,85,0.00,,,0.00,VWS V13.01,2013-02-02 23:17:00,
2013-02-02 17:18:00,43.0,38.8,29.62,WNW,283,0.0,0.0,85,0.00,,,0.00,VWS V13.01,2013-02-02 23:18:00,
2013-02-02 17:19:00,43.2,39.0,29.62,WNW,283,0.0,0.0,85,0.00,,,0.00,VWS V13.01,2013-02-02 23:19:00,
2013-02-02 17:20:00,43.2,39.0,29.62,WNW,283,0.0,0.0,85,0.00,,,0.00,VWS V13.01,2013-02-02 23:20:00,
2013-02-02 17:21:00,43.0,38.8,29.62,WNW,283,0.0,0.0,85,0.00,,,0.00,VWS V13.01,2013-02-02 23:21:00,
2013-02-02 17:22:00,42.6,38.4,29.62,WNW,283,0.0,0.0,85,0.00,,,0.00,VWS V13.01,2013-02-02 23:22:00,
2013-02-02 17:23:00,42.6,38.4,29.62,WNW,283,0.0,0.0,85,0.00,,,0.00,VWS V13.01,2013-02-02 23:23:00,
2013-02-02 17:24:00,42.3,38.1,29.62,WNW,283,0.0,0.0,85,0.00,,,0.00,VWS V13.01,2013-02-02 23:24:00,
2013-02-02 17:25:00,41.9,37.7,29.62,WNW,283,0.0,0.0,85,0.00,,,0.00,VWS V13.01,2013-02-02 23:25:00,
2013-02-02 17:26:00,41.7,37.5,29.62,WNW,283,0.0,0.0,85,0.00,,,0.00,VWS V13.01,2013-02-02 23:26:00,
2013-02-02 17:27:00,41.4,37.2,29.62,WNW,283,0.0,0.0,85,0.00,,,0.00,VWS V13.01,2013-02-02 23:27:00,
2013-02-02 17:28:00,41.2,37.0,29.62,WNW,283,0.0,0.0,85,0.00,,,0.00,VWS V13.01,2013-02-02 23:28:00,
2013-02-02 17:29:00,41.0,36.8,29.62,WNW,283,0.0,0.0,85,0.00,,,0.00,VWS V13.01,2013-02-02 23:29:00,
2013-02-02 17:30:00,40.8,36.7,29.62,WNW,283,0.0,0.0,85,0.00,,,0.00,VWS V13.01,2013-02-02 23:30:00,
2013-02-02 17:31:00,40.6,36.5,29.62,WNW,283,0.0,0.0,85,0.00,,,0.00,VWS V13.01,2013-02-02 23:31:00,
2013-02-02 17:32:00,40.3,36.1,29.62,WNW,283,0.0,0.0,85,0.00,,,0.00,VWS V13.01,2013-02-02 23:32:00,
2013-02-02 17:33:00,40.3,36.1,29.62,WNW,283,0.0,0.0,85,0.00,,,0.00,VWS V13.01,2013-02-02 23:33:00,
2013-02-02 17:34:00,40.1,36.0,29.62,WNW,283,0.0,0.0,85,0.00,,,0.00,VWS V13.01,2013-02-02 23:34:00,
2013-02-02 17:35:00,39.9,35.8,29.62,WNW,283,0.0,0.0,85,0.00,,,0.00,VWS V13.01,2013-02-02 23:35:00,
2013-02-02 17:36:00,39.7,35.6,29.62,WNW,283,0.0,0.0,85,0.00,,,0.00,VWS V13.01,2013-02-02 23:36:00,
2013-02-02 17:37:00,39.6,35.4,29.62,WNW,283,0.0,0.0,85,0.00,,,0.00,VWS V13.01,2013-02-02 23:37:00,
2013-02-02 17:38:00,39.6,35.4,29.62,WNW,283,0.0,0.0,85,0.00,,,0.00,VWS V13.01,2013-02-02 23:38:00,
2013-02-02 17:39:00,39.4,35.2,29.62,WNW,283,0.0,0.0,85,0.00,,,0.00,VWS V13.01,2013-02-02 23:39:00,
2013-02-02 17:40:00,39.4,35.2,29.62,WNW,283,0.0,0.0,85,0.00,,,0.00,VWS V13.01,2013-02-02 23:40:00,
2013-02-02 17:41:00,39.2,35.1,29.62,WNW,283,0.0,0.0,85,0.00,,,0.00,VWS V13.01,2013-02-02 23:41:00,
2013-02-02 17:42:00,39.0,36.6,29.62,WNW,283,0.0,0.0,91,0.00,,,0.00,VWS V13.01,2013-02-02 23:42:00,
2013-02-02 17:43:00,39.0,36.6,29.62,WNW,283,0.0,0.0,91,0.00,,,0.00,VWS V13.01,2013-02-02 23:43:00,
2013-02-02 17:44:00,38.8,36.4,29.62,WNW,283,0.0,0.0,91,0.00,,,0.00,VWS V13.01,2013-02-02 23:44:00,
2013-02-02 17:45:00,38.7,36.3,29.62,WNW,283,0.0,0.0,91,0.00,,,0.00,VWS V13.01,2013-02-02 23:45:00,
2013-02-02 17:46:00,38.8,36.4,29.62,WNW,283,0.0,0.0,91,0.00,,,0.00,VWS V13.01,2013-02-02 23:46:00,
2013-02-02 17:47:00,39.2,35.1,29.62,WNW,283,0.0,0.0,85,0.00,,,0.00,VWS V13.01,2013-02-02 23:47:00,
2013-02-02 17:48:00,39.2,35.1,29.62,WNW,283,0.0,0.0,85,0.00,,,0.00,VWS V13.01,2013-02-02 23:48:00,
2013-02-02 17:49:00,39.2,35.1,29.62,WNW,283,0.0,0.0,85,0.00,,,0.00,VWS V13.01,2013-02-02 23:49:00,
2013-02-02 17:50:00,39.0,36.6,29.62,WNW,283,0.0,0.0,91,0.00,,,0.00,VWS V13.01,2013-02-02 23:50:00,
2013-02-02 17:51:00,38.7,36.3,29.62,WNW,283,0.0,0.0,91,0.00,,,0.00,VWS V13.01,2013-02-02 23:51:00,
2013-02-02 17:52:00,38.7,36.3,29.62,WNW,283,0.0,0.0,91,0.00,,,0.00,VWS V13.01,2013-02-02 23:52:00,
2013-02-02 17:53:00,38.5,36.1,29.62,WNW,283,0.0,0.0,91,0.00,,,0.00,VWS V13.01,2013-02-02 23:53:00,
2013-02-02 17:54:00,38.3,35.9,29.62,WNW,283,0.0,0.0,91,0.00,,,0.00,VWS V13.01,2013-02-02 23:54:00,
2013-02-02 17:55:00,38.5,36.1,29.62,WNW,283,0.0,0.0,91,0.00,,,0.00,VWS V13.01,2013-02-02 23:55:00,
2013-02-02 17:57:00,38.5,36.1,29.62,WNW,283,0.0,0.0,91,0.00,,,0.00,VWS V13.01,2013-02-02 23:57:00,
2013-02-02 17:58:00,38.1,35.7,29.62,WNW,283,0.0,0.0,91,0.00,,,0.00,VWS V13.01,2013-02-02 23:58:00,
2013-02-02 17:59:00,37.8,35.4,29.62,WNW,283,0.0,0.0,91,0.00,,,0.00,VWS V13.01,2013-02-02 23:59:00,
2013-02-02 18:00:00,37.6,35.2,29.62,WNW,283,0.0,0.0,91,0.00,,,0.00,VWS V13.01,2013-02-03 00:00:00,
2013-02-02 18:01:00,37.6,35.2,29.62,WNW,283,0.0,0.0,91,0.00,,,0.00,VWS V13.01,2013-02-03 00:01:00,
2013-02-02 18:02:00,37.4,35.0,29.62,WNW,283,0.0,0.0,91,0.00,,,0.00,VWS V13.01,2013-02-03 00:02:00,
2013-02-02 18:03:00,37.2,34.8,29.62,WNW,283,0.0,0.0,91,0.00,,,0.00,VWS V13.01,2013-02-03 00:03:00,
2013-02-02 18:04:00,37.0,34.7,29.62,WNW,283,0.0,0.0,91,0.00,,,0.00,VWS V13.01,2013-02-03 00:04:00,
2013-02-02 18:05:00,37.0,34.7,29.62,WNW,283,0.0,0.0,91,0.00,,,0.00,VWS V13.01,2013-02-03 00:05:00,
2013-02-02 18:06:00,36.9,34.5,29.62,WNW,283,0.0,0.0,91,0.00,,,0.00,VWS V13.01,2013-02-03 00:06:00,
2013-02-02 18:07:00,36.9,34.5,29.62,WNW,283,0.0,0.0,91,0.00,,,0.00,VWS V13.01,2013-02-03 00:07:00,
2013-02-02 18:08:00,36.9,34.5,29.62,WNW,283,0.0,0.0,91,0.00,,,0.00,VWS V13.01,2013-02-03 00:08:00,
2013-02-02 18:09:00,36.9,34.5,29.62,WNW,283,0.0,0.0,91,0.00,,,0.00,VWS V13.01,2013-02-03 00:09:00,
2013-02-02 18:10:00,36.9,34.5,29.62,WNW,283,0.0,0.0,91,0.00,,,0.00,VWS V13.01,2013-02-03 00:10:00,
2013-02-02 18:11:00,36.9,34.5,29.62,WNW,283,0.0,0.0,91,0.00,,,0.00,VWS V13.01,2013-02-03 00:11:00,
2013-02-02 18:12:00,36.9,34.5,29.62,WNW,283,0.0,0.0,91,0.00,,,0.00,VWS V13.01,2013-02-03 00:12:00,
2013-02-02 18:13:00,36.9,34.5,29.62,WNW,283,0.0,0.0,91,0.00,,,0.00,VWS V13.01,2013-02-03 00:13:00,
2013-02-02 18:14:00,36.9,34.5,29.62,WNW,283,0.0,0.0,91,0.00,,,0.00,VWS V13.01,2013-02-03 00:14:00,
2013-02-02 18:15:00,36.7,34.3,29.62,WNW,283,0.0,0.0,91,0.00,,,0.00,VWS V13.01,2013-02-03 00:15:00,
2013-02-02 18:16:00,36.7,34.3,29.62,WNW,283,0.0,0.0,91,0.00,,,0.00,VWS V13.01,2013-02-03 00:16:00,
2013-02-02 18:17:00,36.1,33.8,29.62,WNW,283,0.0,0.0,91,0.00,,,0.00,VWS V13.01,2013-02-03 00:17:00,
2013-02-02 18:18:00,36.1,33.8,29.62,WNW,283,0.0,0.0,91,0.00,,,0.00,VWS V13.01,2013-02-03 00:18:00,
2013-02-02 18:19:00,36.1,33.8,29.62,WNW,283,0.0,0.0,91,0.00,,,0.00,VWS V13.01,2013-02-03 00:19:00,
2013-02-02 18:20:00,36.0,33.6,29.62,WNW,283,0.0,0.0,91,0.00,,,0.00,VWS V13.01,2013-02-03 00:20:00,
2013-02-02 18:21:00,36.0,33.6,29.62,WNW,283,0.0,0.0,91,0.00,,,0.00,VWS V13.01,2013-02-03 00:21:00,
2013-02-02 18:22:00,35.8,33.4,29.62,WNW,283,0.0,0.0,91,0.00,,,0.00,VWS V13.01,2013-02-03 00:22:00,
2013-02-02 18:23:00,35.8,33.4,29.62,WNW,283,0.0,0.0,91,0.00,,,0.00,VWS V13.01,2013-02-03 00:23:00,
2013-02-02 18:24:00,35.8,33.4,29.62,WNW,283,0.0,0.0,91,0.00,,,0.00,VWS V13.01,2013-02-03 00:24:00,
2013-02-02 18:25:00,35.8,33.4,29.62,WNW,283,0.0,0.0,91,0.00,,,0.00,VWS V13.01,2013-02-03 00:25:00,
2013-02-02 18:26:00,35.8,33.4,29.62,WNW,283,0.0,0.0,91,0.00,,,0.00,VWS V13.01,2013-02-03 00:26:00,
2013-02-02 18:27:00,36.0,33.6,29.62,WNW,283,0.0,0.0,91,0.00,,,0.00,VWS V13.01,2013-02-03 00:27:00,
2013-02-02 18:28:00,36.0,33.6,29.62,WNW,283,0.0,0.0,91,0.00,,,0.00,VWS V13.01,2013-02-03 00:28:00,
2013-02-02 18:29:00,36.0,33.6,29.62,WNW,283,0.0,0.0,91,0.00,,,0.00,VWS V13.01,2013-02-03 00:29:00,
2013-02-02 18:30:00,36.0,33.6,29.62,WNW,283,0.0,0.0,91,0.00,,,0.00,VWS V13.01,2013-02-03 00:30:00,
2013-02-02 18:31:00,36.0,33.6,29.62,WNW,283,0.0,0.0,91,0.00,,,0.00,VWS V13.01,2013-02-03 00:31:00,
2013-02-02 18:32:00,36.0,33.6,29.62,WNW,283,0.0,0.0,91,0.00,,,0.00,VWS V13.01,2013-02-03 00:32:00,
2013-02-02 18:33:00,36.0,33.6,29.62,WNW,283,0.0,0.0,91,0.00,,,0.00,VWS V13.01,2013-02-03 00:33:00,
2013-02-02 18:34:00,36.0,33.6,29.62,WNW,283,0.0,0.0,91,0.00,,,0.00,VWS V13.01,2013-02-03 00:34:00,
2013-02-02 18:35:00,35.8,33.4,29.62,WNW,283,0.0,0.0,91,0.00,,,0.00,VWS V13.01,2013-02-03 00:35:00,
2013-02-02 18:36:00,35.6,33.2,29.62,WNW,283,0.0,0.0,91,0.00,,,0.00,VWS V13.01,2013-02-03 00:36:00,
2013-02-02 18:37:00,35.4,34.7,29.62,WNW,283,0.0,0.0,97,0.00,,,0.00,VWS V13.01,2013-02-03 00:37:00,
2013-02-02 18:38:00,35.2,34.5,29.62,WNW,283,0.0,0.0,97,0.00,,,0.00,VWS V13.01,2013-02-03 00:38:00,
2013-02-02 18:39:00,35.2,34.5,29.62,WNW,283,0.0,0.0,97,0.00,,,0.00,VWS V13.01,2013-02-03 00:39:00,
2013-02-02 18:40:00,35.1,34.3,29.62,WNW,283,0.0,0.0,97,0.00,,,0.00,VWS V13.01,2013-02-03 00:40:00,
2013-02-02 18:41:00,34.9,34.1,29.62,WNW,283,0.0,0.0,97,0.00,,,0.00,VWS V13.01,2013-02-03 00:41:00,
2013-02-02 18:42:00,34.9,34.1,29.59,WNW,283,0.0,0.0,97,0.00,,,0.00,VWS V13.01,2013-02-03 00:42:00,
2013-02-02 18:43:00,34.7,33.9,29.59,WNW,283,0.0,0.0,97,0.00,,,0.00,VWS V13.01,2013-02-03 00:43:00,
2013-02-02 18:44:00,34.7,33.9,29.59,WNW,283,0.0,0.0,97,0.00,,,0.00,VWS V13.01,2013-02-03 00:44:00,
2013-02-02 18:45:00,34.7,33.9,29.59,WNW,283,0.0,0.0,97,0.00,,,0.00,VWS V13.01,2013-02-03 00:45:00,
2013-02-02 18:46:00,34.7,33.9,29.59,WNW,283,0.0,0.0,97,0.00,,,0.00,VWS V13.01,2013-02-03 00:46:00,
2013-02-02 18:47:00,34.7,33.9,29.59,WNW,283,0.0,0.0,97,0.00,,,0.00,VWS V13.01,2013-02-03 00:47:00,
2013-02-02 18:48:00,34.7,33.9,29.59,WNW,283,0.0,0.0,97,0.00,,,0.00,VWS V13.01,2013-02-03 00:48:00,
2013-02-02 18:49:00,34.7,33.9,29.59,WNW,283,0.0,0.0,97,0.00,,,0.00,VWS V13.01,2013-02-03 00:49:00,
2013-02-02 18:50:00,34.5,33.8,29.59,WNW,283,0.0,0.0,97,0.00,,,0.00,VWS V13.01,2013-02-03 00:50:00,
2013-02-02 18:51:00,34.5,33.8,29.59,WNW,283,0.0,0.0,97,0.00,,,0.00,VWS V13.01,2013-02-03 00:51:00,
2013-02-02 18:52:00,34.3,33.6,29.59,WNW,283,0.0,0.0,97,0.00,,,0.00,VWS V13.01,2013-02-03 00:52:00,
2013-02-02 18:53:00,34.3,33.6,29.59,WNW,283,0.0,0.0,97,0.00,,,0.00,VWS V13.01,2013-02-03 00:53:00,
2013-02-02 18:54:00,34.3,33.6,29.59,WNW,283,0.0,0.0,97,0.00,,,0.00,VWS V13.01,2013-02-03 00:54:00,
2013-02-02 18:55:00,34.3,33.6,29.59,WNW,283,0.0,0.0,97,0.00,,,0.00,VWS V13.01,2013-02-03 00:55:00,
2013-02-02 18:56:00,34.3,33.6,29.59,WNW,283,0.0,0.0,97,0.00,,,0.00,VWS V13.01,2013-02-03 00:56:00,
2013-02-02 18:57:00,34.2,33.4,29.59,WNW,283,0.0,0.0,97,0.00,,,0.00,VWS V13.01,2013-02-03 00:57:00,
2013-02-02 18:59:00,34.2,33.4,29.59,WNW,283,0.0,0.0,97,0.00,,,0.00,VWS V13.01,2013-02-03 00:59:00,
2013-02-02 19:01:00,34.3,33.6,29.59,WNW,283,0.0,0.0,97,0.00,,,0.00,VWS V13.01,2013-02-03 01:01:00,
2013-02-02 19:02:00,34.3,33.6,29.59,WNW,283,0.0,0.0,97,0.00,,,0.00,VWS V13.01,2013-02-03 01:02:00,
2013-02-02 19:04:00,34.3,33.6,29.59,WNW,283,0.0,0.0,97,0.00,,,0.00,VWS V13.01,2013-02-03 01:04:00,
2013-02-02 19:05:00,34.2,33.4,29.59,WNW,283,0.0,0.0,97,0.00,,,0.00,VWS V13.01,2013-02-03 01:05:00,
2013-02-02 19:06:00,34.2,33.4,29.59,WNW,283,0.0,0.0,97,0.00,,,0.00,VWS V13.01,2013-02-03 01:06:00,
2013-02-02 19:07:00,34.2,33.4,29.59,WNW,283,0.0,0.0,97,0.00,,,0.00,VWS V13.01,2013-02-03 01:07:00,
2013-02-02 19:08:00,34.2,33.4,29.59,WNW,283,0.0,0.0,97,0.00,,,0.00,VWS V13.01,2013-02-03 01:08:00,
2013-02-02 19:09:00,34.2,33.4,29.59,WNW,283,0.0,0.0,97,0.00,,,0.00,VWS V13.01,2013-02-03 01:09:00,
2013-02-02 19:11:00,34.2,33.4,29.59,WNW,283,0.0,0.0,97,0.00,,,0.00,VWS V13.01,2013-02-03 01:11:00,
2013-02-02 19:12:00,34.5,33.8,29.59,WNW,283,0.0,0.0,97,0.00,,,0.00,VWS V13.01,2013-02-03 01:12:00,
2013-02-02 19:14:00,35.1,34.3,29.59,WNW,283,0.0,0.0,97,0.00,,,0.00,VWS V13.01,2013-02-03 01:14:00,
2013-02-02 19:16:00,35.6,33.2,29.59,WNW,283,0.0,0.0,91,0.00,,,0.00,VWS V13.01,2013-02-03 01:16:00,
2013-02-02 19:17:00,35.6,33.2,29.59,WNW,282,0.0,0.0,91,0.00,,,0.00,VWS V13.01,2013-02-03 01:17:00,
2013-02-02 19:19:00,35.6,33.2,29.59,WNW,282,0.0,0.0,91,0.00,,,0.00,VWS V13.01,2013-02-03 01:19:00,
2013-02-02 19:20:00,35.1,34.3,29.59,WNW,282,0.0,0.0,97,0.00,,,0.00,VWS V13.01,2013-02-03 01:20:00,
2013-02-02 19:21:00,35.1,34.3,29.59,WNW,282,0.0,0.0,97,0.00,,,0.00,VWS V13.01,2013-02-03 01:21:00,
2013-02-02 19:22:00,35.1,34.3,29.59,WNW,282,0.0,0.0,97,0.00,,,0.00,VWS V13.01,2013-02-03 01:22:00,
2013-02-02 19:23:00,34.7,33.9,29.59,WNW,282,0.0,0.0,97,0.00,,,0.00,VWS V13.01,2013-02-03 01:23:00,
2013-02-02 19:24:00,34.7,33.9,29.59,WNW,282,0.0,0.0,97,0.00,,,0.00,VWS V13.01,2013-02-03 01:24:00,
2013-02-02 19:25:00,34.5,33.8,29.59,WNW,282,0.0,0.0,97,0.00,,,0.00,VWS V13.01,2013-02-03 01:25:00,
2013-02-02 19:26:00,34.5,33.8,29.59,WNW,282,0.0,0.0,97,0.00,,,0.00,VWS V13.01,2013-02-03 01:26:00,
2013-02-02 19:27:00,34.5,33.8,29.59,WNW,282,0.0,0.0,97,0.00,,,0.00,VWS V13.01,2013-02-03 01:27:00,
2013-02-02 19:28:00,34.5,33.8,29.59,WNW,282,0.0,0.0,97,0.00,,,0.00,VWS V13.01,2013-02-03 01:28:00,
2013-02-02 19:29:00,34.5,33.8,29.59,WNW,282,0.0,0.0,97,0.00,,,0.00,VWS V13.01,2013-02-03 01:29:00,
2013-02-02 19:31:00,34.7,33.9,29.59,WNW,282,0.0,0.0,97,0.00,,,0.00,VWS V13.01,2013-02-03 01:31:00,
2013-02-02 19:32:00,34.7,33.9,29.59,WNW,282,0.0,0.0,97,0.00,,,0.00,VWS V13.01,2013-02-03 01:32:00,
2013-02-02 19:33:00,34.7,33.9,29.59,WNW,282,0.0,0.0,97,0.00,,,0.00,VWS V13.01,2013-02-03 01:33:00,
2013-02-02 19:34:00,34.7,33.9,29.59,WNW,282,0.0,0.0,97,0.00,,,0.00,VWS V13.01,2013-02-03 01:34:00,
2013-02-02 19:35:00,34.7,33.9,29.59,WNW,282,0.0,0.0,97,0.00,,,0.00,VWS V13.01,2013-02-03 01:35:00,
2013-02-02 19:36:00,34.7,33.9,29.59,WNW,282,0.0,0.0,97,0.00,,,0.00,VWS V13.01,2013-02-03 01:36:00,
2013-02-02 19:37:00,34.5,33.8,29.59,WNW,282,0.0,0.0,97,0.00,,,0.00,VWS V13.01,2013-02-03 01:37:00,
2013-02-02 19:38:00,34.5,33.8,29.59,WNW,282,0.0,0.0,97,0.00,,,0.00,VWS V13.01,2013-02-03 01:38:00,
2013-02-02 19:39:00,34.7,33.9,29.59,WNW,282,0.0,0.0,97,0.00,,,0.00,VWS V13.01,2013-02-03 01:39:00,
2013-02-02 19:40:00,34.7,33.9,29.59,WNW,282,0.0,0.0,97,0.00,,,0.00,VWS V13.01,2013-02-03 01:40:00,
2013-02-02 19:41:00,34.7,33.9,29.59,WNW,282,0.0,0.0,97,0.00,,,0.00,VWS V13.01,2013-02-03 01:41:00,
2013-02-02 19:42:00,34.9,34.1,29.59,WNW,282,0.0,0.0,97,0.00,,,0.00,VWS V13.01,2013-02-03 01:42:00,
2013-02-02 19:43:00,34.9,34.1,29.59,WNW,282,0.0,0.0,97,0.00,,,0.00,VWS V13.01,2013-02-03 01:43:00,
2013-02-02 19:45:00,34.9,34.1,29.59,WNW,282,0.0,0.0,97,0.00,,,0.00,VWS V13.01,2013-02-03 01:45:00,
2013-02-02 19:46:00,34.9,34.1,29.59,WNW,282,0.0,0.0,97,0.00,,,0.00,VWS V13.01,2013-02-03 01:46:00,
2013-02-02 19:48:00,35.1,34.3,29.59,South,188,0.0,0.0,97,0.00,,,0.00,VWS V13.01,2013-02-03 01:48:00,
2013-02-02 19:50:00,35.1,34.3,29.59,South,188,0.0,0.0,97,0.00,,,0.00,VWS V13.01,2013-02-03 01:50:00,
2013-02-02 19:52:00,35.6,33.2,29.59,South,186,0.0,0.0,91,0.00,,,0.00,VWS V13.01,2013-02-03 01:52:00,
2013-02-02 19:53:00,35.6,33.2,29.59,South,186,0.0,0.0,91,0.00,,,0.00,VWS V13.01,2013-02-03 01:53:00,
2013-02-02 19:55:00,35.8,33.4,29.59,South,187,0.0,0.0,91,0.00,,,0.00,VWS V13.01,2013-02-03 01:55:00,
2013-02-02 19:56:00,36.0,33.6,29.59,South,187,4.0,4.0,91,0.00,,,0.00,VWS V13.01,2013-02-03 01:56:00,
2013-02-02 19:57:00,36.0,33.6,29.59,South,187,4.0,4.0,91,0.00,,,0.00,VWS V13.01,2013-02-03 01:57:00,
2013-02-02 19:58:00,36.0,33.6,29.59,South,187,4.0,4.0,91,0.00,,,0.00,VWS V13.01,2013-02-03 01:58:00,
2013-02-02 19:59:00,36.9,34.5,29.59,South,190,5.8,5.8,91,0.00,,,0.00,VWS V13.01,2013-02-03 01:59:00,
2013-02-02 20:00:00,36.9,34.5,29.59,South,190,5.8,5.8,91,0.00,,,0.00,VWS V13.01,2013-02-03 02:00:00,
2013-02-02 20:02:00,37.2,34.8,29.59,South,191,4.9,4.9,91,0.00,,,0.00,VWS V13.01,2013-02-03 02:02:00,
2013-02-02 20:03:00,37.2,34.8,29.59,South,191,4.9,4.9,91,0.00,,,0.00,VWS V13.01,2013-02-03 02:03:00,
2013-02-02 20:05:00,37.2,34.8,29.59,South,187,4.0,4.0,91,0.00,,,0.00,VWS V13.01,2013-02-03 02:05:00,
2013-02-02 20:07:00,37.2,34.8,29.59,South,187,4.0,4.0,91,0.00,,,0.00,VWS V13.01,2013-02-03 02:07:00,
2013-02-02 20:08:00,37.2,34.8,29.59,South,187,5.8,5.8,91,0.00,,,0.00,VWS V13.01,2013-02-03 02:08:00,
2013-02-02 20:10:00,37.4,35.0,29.59,South,190,5.4,5.4,91,0.00,,,0.00,VWS V13.01,2013-02-03 02:10:00,
2013-02-02 20:13:00,37.4,35.0,29.59,South,190,5.4,5.4,91,0.00,,,0.00,VWS V13.01,2013-02-03 02:13:00,
2013-02-02 20:16:00,37.4,35.0,29.59,South,190,4.0,4.0,91,0.00,,,0.00,VWS V13.01,2013-02-03 02:16:00,
2013-02-02 20:18:00,37.6,35.2,29.59,South,190,4.0,4.0,91,0.00,,,0.00,VWS V13.01,2013-02-03 02:18:00,
2013-02-02 20:19:00,37.9,35.5,29.59,SSW,192,3.1,3.1,91,0.00,,,0.00,VWS V13.01,2013-02-03 02:19:00,
2013-02-02 20:21:00,37.9,35.5,29.59,SSW,192,3.1,3.1,91,0.00,,,0.00,VWS V13.01,2013-02-03 02:21:00,
2013-02-02 20:22:00,38.3,35.9,29.59,SSW,193,6.3,6.3,91,0.00,,,0.00,VWS V13.01,2013-02-03 02:22:00,
2013-02-02 20:23:00,38.3,35.9,29.59,SSW,193,6.3,6.3,91,0.00,,,0.00,VWS V13.01,2013-02-03 02:23:00,
2013-02-02 20:24:00,38.3,35.9,29.59,SSW,193,6.3,6.3,91,0.00,,,0.00,VWS V13.01,2013-02-03 02:24:00,
2013-02-02 20:25:00,38.5,36.1,29.59,South,191,5.4,5.4,91,0.00,,,0.00,VWS V13.01,2013-02-03 02:25:00,
2013-02-02 20:26:00,38.5,36.1,29.59,South,191,5.4,5.4,91,0.00,,,0.00,VWS V13.01,2013-02-03 02:26:00,
2013-02-02 20:28:00,38.5,36.1,29.59,SSW,195,3.6,3.6,91,0.00,,,0.00,VWS V13.01,2013-02-03 02:28:00,
2013-02-02 20:30:00,38.5,36.1,29.59,SSW,195,3.6,3.6,91,0.00,,,0.00,VWS V13.01,2013-02-03 02:30:00,
2013-02-02 20:31:00,38.5,36.1,29.59,SSW,195,3.6,3.6,91,0.00,,,0.00,VWS V13.01,2013-02-03 02:31:00,
2013-02-02 20:33:00,38.8,36.4,29.59,SSW,205,4.0,4.0,91,0.00,,,0.00,VWS V13.01,2013-02-03 02:33:00,
2013-02-02 20:34:00,38.8,36.4,29.59,SSW,205,4.0,4.0,91,0.00,,,0.00,VWS V13.01,2013-02-03 02:34:00,
2013-02-02 20:35:00,38.8,36.4,29.59,SSW,205,4.0,4.0,91,0.00,,,0.00,VWS V13.01,2013-02-03 02:35:00,
2013-02-02 20:36:00,38.8,36.4,29.59,SSW,197,5.4,5.4,91,0.00,,,0.00,VWS V13.01,2013-02-03 02:36:00,
2013-02-02 20:38:00,39.2,35.1,29.59,SSW,198,4.5,4.5,85,0.00,,,0.00,VWS V13.01,2013-02-03 02:38:00,
2013-02-02 20:39:00,39.2,35.1,29.59,SSW,198,4.5,4.5,85,0.00,,,0.00,VWS V13.01,2013-02-03 02:39:00,
2013-02-02 20:40:00,39.2,35.1,29.59,SSW,198,4.5,4.5,85,0.00,,,0.00,VWS V13.01,2013-02-03 02:40:00,
2013-02-02 20:41:00,39.4,35.2,29.59,SSW,200,4.9,4.9,85,0.00,,,0.00,VWS V13.01,2013-02-03 02:41:00,
2013-02-02 20:43:00,39.6,35.4,29.59,SSW,199,4.0,4.0,85,0.00,,,0.00,VWS V13.01,2013-02-03 02:43:00,
2013-02-02 20:44:00,39.6,35.4,29.59,SSW,199,4.0,4.0,85,0.00,,,0.00,VWS V13.01,2013-02-03 02:44:00,
2013-02-02 20:45:00,39.6,35.4,29.59,SSW,199,4.0,4.0,85,0.00,,,0.00,VWS V13.01,2013-02-03 02:45:00,
2013-02-02 20:46:00,39.7,35.6,29.59,SSW,201,4.9,4.9,85,0.00,,,0.00,VWS V13.01,2013-02-03 02:46:00,
2013-02-02 20:48:00,39.7,35.6,29.59,SW,216,3.6,3.6,85,0.00,,,0.00,VWS V13.01,2013-02-03 02:48:00,
2013-02-02 20:49:00,39.7,35.6,29.59,SW,216,3.6,3.6,85,0.00,,,0.00,VWS V13.01,2013-02-03 02:49:00,
2013-02-02 20:50:00,39.7,35.6,29.59,SW,216,3.6,3.6,85,0.00,,,0.00,VWS V13.01,2013-02-03 02:50:00,
2013-02-02 20:51:00,39.9,35.8,29.59,SSW,195,5.8,5.8,85,0.00,,,0.00,VWS V13.01,2013-02-03 02:51:00,
2013-02-02 20:53:00,39.9,35.8,29.59,SSW,200,3.6,3.6,85,0.00,,,0.00,VWS V13.01,2013-02-03 02:53:00,
2013-02-02 20:54:00,39.9,35.8,29.59,SSW,200,3.6,3.6,85,0.00,,,0.00,VWS V13.01,2013-02-03 02:54:00,
2013-02-02 20:55:00,39.9,35.8,29.59,SSW,200,3.6,3.6,85,0.00,,,0.00,VWS V13.01,2013-02-03 02:55:00,
2013-02-02 20:56:00,39.9,35.8,29.59,SSW,200,2.7,2.7,85,0.00,,,0.00,VWS V13.01,2013-02-03 02:56:00,
2013-02-02 20:58:00,39.9,35.8,29.59,SSW,203,0.0,0.0,85,0.00,,,0.00,VWS V13.01,2013-02-03 02:58:00,
2013-02-02 20:59:00,39.9,35.8,29.59,SSW,203,0.0,0.0,85,0.00,,,0.00,VWS V13.01,2013-02-03 02:59:00,
2013-02-02 21:00:00,39.9,35.8,29.59,SSW,203,0.0,0.0,85,0.00,,,0.00,VWS V13.01,2013-02-03 03:00:00,
2013-02-02 21:01:00,39.9,35.8,29.59,SSW,206,3.1,3.1,85,0.00,,,0.00,VWS V13.01,2013-02-03 03:01:00,
2013-02-02 21:03:00,40.1,36.0,29.59,SSW,207,3.6,3.6,85,0.00,,,0.00,VWS V13.01,2013-02-03 03:03:00,
2013-02-02 21:04:00,40.1,36.0,29.59,SSW,207,3.6,3.6,85,0.00,,,0.00,VWS V13.01,2013-02-03 03:04:00,
2013-02-02 21:05:00,40.1,36.0,29.59,SSW,207,3.6,3.6,85,0.00,,,0.00,VWS V13.01,2013-02-03 03:05:00,
2013-02-02 21:06:00,39.9,35.8,29.59,SSW,208,4.0,4.0,85,0.00,,,0.00,VWS V13.01,2013-02-03 03:06:00,
2013-02-02 21:07:00,40.3,36.1,29.59,SSW,202,3.6,3.6,85,0.00,,,0.00,VWS V13.01,2013-02-03 03:07:00,
2013-02-02 21:08:00,40.1,36.0,29.59,SSW,203,3.6,3.6,85,0.00,,,0.00,VWS V13.01,2013-02-03 03:08:00,
2013-02-02 21:09:00,40.1,36.0,29.59,SSW,203,3.6,3.6,85,0.00,,,0.00,VWS V13.01,2013-02-03 03:09:00,
2013-02-02 21:10:00,40.1,36.0,29.59,SSW,203,3.6,3.6,85,0.00,,,0.00,VWS V13.01,2013-02-03 03:10:00,
2013-02-02 21:11:00,40.1,36.0,29.59,SSW,203,3.6,3.6,85,0.00,,,0.00,VWS V13.01,2013-02-03 03:11:00,
2013-02-02 21:12:00,40.1,36.0,29.59,SSW,203,4.0,4.0,85,0.00,,,0.00,VWS V13.01,2013-02-03 03:12:00,
2013-02-02 21:13:00,40.1,36.0,29.56,SSW,203,3.6,3.6,85,0.00,,,0.00,VWS V13.01,2013-02-03 03:13:00,
2013-02-02 21:14:00,40.1,36.0,29.56,SSW,203,3.6,3.6,85,0.00,,,0.00,VWS V13.01,2013-02-03 03:14:00,
2013-02-02 21:15:00,40.1,36.0,29.56,SSW,205,5.8,5.8,85,0.00,,,0.00,VWS V13.01,2013-02-03 03:15:00,
2013-02-02 21:16:00,40.1,36.0,29.56,South,186,5.4,5.4,85,0.00,,,0.00,VWS V13.01,2013-02-03 03:16:00,
2013-02-02 21:17:00,40.1,36.0,29.56,South,186,5.4,5.4,85,0.00,,,0.00,VWS V13.01,2013-02-03 03:17:00,
2013-02-02 21:18:00,39.9,35.8,29.56,SSW,203,5.4,5.4,85,0.00,,,0.00,VWS V13.01,2013-02-03 03:18:00,
2013-02-02 21:19:00,39.9,35.8,29.56,SSW,203,5.4,5.4,85,0.00,,,0.00,VWS V13.01,2013-02-03 03:19:00,
2013-02-02 21:20:00,39.9,35.8,29.56,SSW,199,4.0,4.0,85,0.00,,,0.00,VWS V13.01,2013-02-03 03:20:00,
2013-02-02 21:21:00,39.9,35.8,29.56,SSW,201,5.4,5.4,85,0.00,,,0.00,VWS V13.01,2013-02-03 03:21:00,
2013-02-02 21:22:00,39.9,35.8,29.56,SSW,201,5.4,5.4,85,0.00,,,0.00,VWS V13.01,2013-02-03 03:22:00,
2013-02-02 21:23:00,40.1,36.0,29.56,SSW,193,5.8,5.8,85,0.00,,,0.00,VWS V13.01,2013-02-03 03:23:00,
2013-02-02 21:24:00,40.1,36.0,29.56,SSW,193,5.8,5.8,85,0.00,,,0.00,VWS V13.01,2013-02-03 03:24:00,
2013-02-02 21:25:00,40.1,36.0,29.56,SSW,204,5.8,5.8,85,0.00,,,0.00,VWS V13.01,2013-02-03 03:25:00,
2013-02-02 21:26:00,40.3,36.1,29.56,SSW,204,5.8,5.8,85,0.00,,,0.00,VWS V13.01,2013-02-03 03:26:00,
2013-02-02 21:27:00,40.3,36.1,29.56,SSW,204,5.8,5.8,85,0.00,,,0.00,VWS V13.01,2013-02-03 03:27:00,
2013-02-02 21:29:00,40.3,36.1,29.56,SSW,205,3.6,3.6,85,0.00,,,0.00,VWS V13.01,2013-02-03 03:29:00,
2013-02-02 21:31:00,40.5,36.3,29.56,SSW,202,5.4,5.4,85,0.00,,,0.00,VWS V13.01,2013-02-03 03:31:00,
2013-02-02 21:32:00,40.6,36.5,29.56,SSW,211,5.8,5.8,85,0.00,,,0.00,VWS V13.01,2013-02-03 03:32:00,
2013-02-02 21:33:00,40.8,36.7,29.56,SSW,212,4.9,4.9,85,0.00,,,0.00,VWS V13.01,2013-02-03 03:33:00,
2013-02-02 21:34:00,40.8,36.7,29.56,SSW,212,4.9,4.9,85,0.00,,,0.00,VWS V13.01,2013-02-03 03:34:00,
2013-02-02 21:36:00,41.0,36.8,29.56,SSW,195,4.9,4.9,85,0.00,,,0.00,VWS V13.01,2013-02-03 03:36:00,
2013-02-02 21:37:00,41.2,37.0,29.56,SSW,192,5.8,5.8,85,0.00,,,0.00,VWS V13.01,2013-02-03 03:37:00,
2013-02-02 21:39:00,41.4,37.2,29.56,SSW,202,4.9,4.9,85,0.00,,,0.00,VWS V13.01,2013-02-03 03:39:00,
2013-02-02 21:40:00,41.4,37.2,29.56,SSW,205,4.0,4.0,85,0.00,,,0.00,VWS V13.01,2013-02-03 03:40:00,
2013-02-02 21:41:00,41.4,37.2,29.56,SSW,210,3.1,3.1,85,0.00,,,0.00,VWS V13.01,2013-02-03 03:41:00,
2013-02-02 21:42:00,41.4,37.2,29.56,SSW,210,3.1,3.1,85,0.00,,,0.00,VWS V13.01,2013-02-03 03:42:00,
2013-02-02 21:44:00,41.2,37.0,29.56,SSW,204,5.8,5.8,85,0.00,,,0.00,VWS V13.01,2013-02-03 03:44:00,
2013-02-02 21:45:00,41.2,37.0,29.56,SSW,204,5.8,5.8,85,0.00,,,0.00,VWS V13.01,2013-02-03 03:45:00,
2013-02-02 21:46:00,41.2,37.0,29.56,SSW,211,8.3,8.3,85,0.00,,,0.00,VWS V13.01,2013-02-03 03:46:00,
2013-02-02 21:47:00,41.4,37.2,29.56,SSW,213,8.7,8.7,85,0.00,,,0.00,VWS V13.01,2013-02-03 03:47:00,
2013-02-02 21:48:00,41.4,37.2,29.56,SSW,213,8.7,8.7,85,0.00,,,0.00,VWS V13.01,2013-02-03 03:48:00,
2013-02-02 21:49:00,41.4,37.2,29.56,SW,224,6.3,6.3,85,0.00,,,0.00,VWS V13.01,2013-02-03 03:49:00,
2013-02-02 21:50:00,41.4,37.2,29.56,SW,224,6.3,6.3,85,0.00,,,0.00,VWS V13.01,2013-02-03 03:50:00,
2013-02-02 21:51:00,41.4,37.2,29.56,SSW,207,3.6,3.6,85,0.00,,,0.00,VWS V13.01,2013-02-03 03:51:00,
2013-02-02 21:52:00,41.2,37.0,29.56,SSW,209,2.7,2.7,85,0.00,,,0.00,VWS V13.01,2013-02-03 03:52:00,
2013-02-02 21:53:00,41.2,37.0,29.56,SSW,209,2.7,2.7,85,0.00,,,0.00,VWS V13.01,2013-02-03 03:53:00,
2013-02-02 21:54:00,41.0,36.8,29.56,SW,223,3.6,3.6,85,0.00,,,0.00,VWS V13.01,2013-02-03 03:54:00,
2013-02-02 21:55:00,41.0,36.8,29.56,SW,222,4.0,4.0,85,0.00,,,0.00,VWS V13.01,2013-02-03 03:55:00,
2013-02-02 21:56:00,41.0,36.8,29.56,SW,222,4.0,4.0,85,0.00,,,0.00,VWS V13.01,2013-02-03 03:56:00,
2013-02-02 21:58:00,40.8,36.7,29.56,SSW,203,4.9,4.9,85,0.00,,,0.00,VWS V13.01,2013-02-03 03:58:00,
2013-02-02 22:00:00,41.0,36.8,29.53,SSW,211,4.9,4.9,85,0.00,,,0.00,VWS V13.01,2013-02-03 04:00:00,
2013-02-02 22:01:00,40.8,36.7,29.53,SW,224,3.1,3.1,85,0.00,,,0.00,VWS V13.01,2013-02-03 04:01:00,
2013-02-02 22:03:00,41.0,36.8,29.53,SSW,212,0.0,0.0,85,0.00,,,0.00,VWS V13.01,2013-02-03 04:03:00,
2013-02-02 22:04:00,41.0,36.8,29.53,SW,219,4.5,4.5,85,0.00,,,0.00,VWS V13.01,2013-02-03 04:04:00,
2013-02-02 22:05:00,41.0,36.8,29.53,SW,219,4.5,4.5,85,0.00,,,0.00,VWS V13.01,2013-02-03 04:05:00,
2013-02-02 22:06:00,41.0,36.8,29.53,SSW,210,3.6,3.6,85,0.00,,,0.00,VWS V13.01,2013-02-03 04:06:00,
2013-02-02 22:07:00,41.0,36.8,29.53,SSW,210,3.6,3.6,85,0.00,,,0.00,VWS V13.01,2013-02-03 04:07:00,
2013-02-02 22:08:00,40.8,36.7,29.53,SSW,210,3.6,3.6,85,0.00,,,0.00,VWS V13.01,2013-02-03 04:08:00,
2013-02-02 22:09:00,40.6,36.5,29.53,SSW,212,0.0,0.0,85,0.00,,,0.00,VWS V13.01,2013-02-03 04:09:00,
2013-02-02 22:10:00,40.6,36.5,29.53,SSW,212,0.0,0.0,85,0.00,,,0.00,VWS V13.01,2013-02-03 04:10:00,
2013-02-02 22:11:00,40.6,36.5,29.53,West,280,0.0,0.0,85,0.00,,,0.00,VWS V13.01,2013-02-03 04:11:00,
2013-02-02 22:12:00,40.6,36.5,29.53,West,280,0.0,0.0,85,0.00,,,0.00,VWS V13.01,2013-02-03 04:12:00,
2013-02-02 22:13:00,40.5,36.3,29.56,WSW,241,3.6,3.6,85,0.00,,,0.00,VWS V13.01,2013-02-03 04:13:00,
2013-02-02 22:14:00,40.5,36.3,29.56,SW,217,3.6,3.6,85,0.00,,,0.00,VWS V13.01,2013-02-03 04:14:00,
2013-02-02 22:15:00,40.5,36.3,29.56,SW,217,3.6,3.6,85,0.00,,,0.00,VWS V13.01,2013-02-03 04:15:00,
2013-02-02 22:17:00,40.6,36.5,29.56,WNW,290,3.1,3.1,85,0.00,,,0.00,VWS V13.01,2013-02-03 04:17:00,
2013-02-02 22:18:00,40.6,36.5,29.56,West,273,3.6,3.6,85,0.00,,,0.00,VWS V13.01,2013-02-03 04:18:00,
2013-02-02 22:20:00,40.5,36.3,29.56,WSW,244,3.1,3.1,85,0.00,,,0.00,VWS V13.01,2013-02-03 04:20:00,
2013-02-02 22:21:00,40.5,36.3,29.56,WSW,244,3.1,3.1,85,0.00,,,0.00,VWS V13.01,2013-02-03 04:21:00,
2013-02-02 22:22:00,40.5,36.3,29.56,WSW,252,3.1,3.1,85,0.00,,,0.00,VWS V13.01,2013-02-03 04:22:00,
2013-02-02 22:23:00,40.5,36.3,29.56,WSW,252,3.1,3.1,85,0.00,,,0.00,VWS V13.01,2013-02-03 04:23:00,
2013-02-02 22:25:00,39.9,35.8,29.56,SW,230,3.1,3.1,85,0.00,,,0.00,VWS V13.01,2013-02-03 04:25:00,
2013-02-02 22:26:00,39.9,35.8,29.56,SW,230,3.1,3.1,85,0.00,,,0.00,VWS V13.01,2013-02-03 04:26:00,
2013-02-02 22:27:00,39.7,35.6,29.56,SW,230,2.7,2.7,85,0.00,,,0.00,VWS V13.01,2013-02-03 04:27:00,
2013-02-02 22:28:00,39.6,35.4,29.59,SW,224,3.6,3.6,85,0.00,,,0.00,VWS V13.01,2013-02-03 04:28:00,
2013-02-02 22:29:00,39.6,35.4,29.59,SSW,211,2.7,2.7,85,0.00,,,0.00,VWS V13.01,2013-02-03 04:29:00,
2013-02-02 22:31:00,39.6,35.4,29.59,SSW,211,2.7,2.7,85,0.00,,,0.00,VWS V13.01,2013-02-03 04:31:00,
2013-02-02 22:32:00,40.1,36.0,29.59,WSW,250,2.7,2.7,85,0.00,,,0.00,VWS V13.01,2013-02-03 04:32:00,
2013-02-02 22:33:00,39.9,35.8,29.59,WSW,238,2.7,2.7,85,0.00,,,0.00,VWS V13.01,2013-02-03 04:33:00,
2013-02-02 22:34:00,40.3,36.1,29.59,West,279,4.0,4.0,85,0.00,,,0.00,VWS V13.01,2013-02-03 04:34:00,
2013-02-02 22:36:00,40.3,36.1,29.59,West,279,4.0,4.0,85,0.00,,,0.00,VWS V13.01,2013-02-03 04:36:00,
2013-02-02 22:37:00,40.3,36.1,29.59,NW,308,0.0,0.0,85,0.00,,,0.00,VWS V13.01,2013-02-03 04:37:00,
2013-02-02 22:38:00,40.6,36.5,29.59,WSW,258,3.6,3.6,85,0.00,,,0.00,VWS V13.01,2013-02-03 04:38:00,
2013-02-02 22:39:00,40.6,36.5,29.59,WNW,295,6.3,6.3,85,0.00,,,0.00,VWS V13.01,2013-02-03 04:39:00,
2013-02-02 22:41:00,40.6,36.5,29.59,West,268,2.2,2.2,85,0.00,,,0.00,VWS V13.01,2013-02-03 04:41:00,
2013-02-02 22:42:00,40.6,36.5,29.59,West,268,2.2,2.2,85,0.00,,,0.00,VWS V13.01,2013-02-03 04:42:00,
2013-02-02 22:43:00,41.2,37.0,29.59,West,265,2.7,2.7,85,0.00,,,0.00,VWS V13.01,2013-02-03 04:43:00,
2013-02-02 22:44:00,41.4,37.2,29.59,West,277,4.0,4.0,85,0.00,,,0.00,VWS V13.01,2013-02-03 04:44:00,
2013-02-02 22:46:00,41.7,37.5,29.59,NNW,332,3.6,3.6,85,0.00,,,0.00,VWS V13.01,2013-02-03 04:46:00,
2013-02-02 22:47:00,41.7,37.5,29.59,NW,322,2.7,2.7,85,0.00,,,0.00,VWS V13.01,2013-02-03 04:47:00,
2013-02-02 22:48:00,41.7,37.5,29.59,WNW,295,3.6,3.6,85,0.00,,,0.00,VWS V13.01,2013-02-03 04:48:00,
2013-02-02 22:49:00,41.9,37.7,29.59,WNW,290,4.9,4.9,85,0.00,,,0.00,VWS V13.01,2013-02-03 04:49:00,
2013-02-02 22:50:00,41.7,37.5,29.59,West,274,2.7,2.7,85,0.00,,,0.00,VWS V13.01,2013-02-03 04:50:00,
2013-02-02 22:51:00,41.7,37.5,29.59,West,274,2.7,2.7,85,0.00,,,0.00,VWS V13.01,2013-02-03 04:51:00,
2013-02-02 22:52:00,42.1,37.9,29.59,NNW,327,5.4,5.4,85,0.00,,,0.00,VWS V13.01,2013-02-03 04:52:00,
2013-02-02 22:53:00,42.1,37.9,29.59,NNW,327,5.4,5.4,85,0.00,,,0.00,VWS V13.01,2013-02-03 04:53:00,
2013-02-02 22:54:00,42.1,37.9,29.59,West,264,2.2,2.2,85,0.00,,,0.00,VWS V13.01,2013-02-03 04:54:00,
2013-02-02 22:55:00,41.9,37.7,29.59,West,265,5.4,5.4,85,0.00,,,0.00,VWS V13.01,2013-02-03 04:55:00,
2013-02-02 22:56:00,41.9,37.7,29.59,West,265,5.4,5.4,85,0.00,,,0.00,VWS V13.01,2013-02-03 04:56:00,
2013-02-02 22:57:00,42.1,37.9,29.59,West,276,3.6,3.6,85,0.00,,,0.00,VWS V13.01,2013-02-03 04:57:00,
2013-02-02 22:58:00,42.1,37.9,29.59,West,276,3.6,3.6,85,0.00,,,0.00,VWS V13.01,2013-02-03 04:58:00,
2013-02-02 23:00:00,41.9,37.7,29.59,West,264,5.4,5.4,85,0.00,,,0.00,VWS V13.01,2013-02-03 05:00:00,
2013-02-02 23:02:00,41.9,37.7,29.59,West,264,5.4,5.4,85,0.00,,,0.00,VWS V13.01,2013-02-03 05:02:00,
2013-02-02 23:03:00,41.7,37.5,29.59,NW,322,0.0,0.0,85,0.00,,,0.00,VWS V13.01,2013-02-03 05:03:00,
2013-02-02 23:04:00,41.5,37.4,29.59,NW,304,3.1,3.1,85,0.00,,,0.00,VWS V13.01,2013-02-03 05:04:00,
2013-02-02 23:05:00,41.7,37.5,29.59,NW,311,4.9,4.9,85,0.00,,,0.00,VWS V13.01,2013-02-03 05:05:00,
2013-02-02 23:06:00,41.7,37.5,29.59,NW,311,4.9,4.9,85,0.00,,,0.00,VWS V13.01,2013-02-03 05:06:00,
2013-02-02 23:07:00,41.7,37.5,29.59,NW,311,4.9,4.9,85,0.00,,,0.00,VWS V13.01,2013-02-03 05:07:00,
2013-02-02 23:08:00,41.5,37.4,29.59,West,275,0.0,0.0,85,0.00,,,0.00,VWS V13.01,2013-02-03 05:08:00,
2013-02-02 23:09:00,41.5,37.4,29.59,West,273,2.2,2.2,85,0.00,,,0.00,VWS V13.01,2013-02-03 05:09:00,
2013-02-02 23:10:00,41.0,36.8,29.59,West,268,5.4,5.4,85,0.00,,,0.00,VWS V13.01,2013-02-03 05:10:00,
2013-02-02 23:11:00,41.0,36.8,29.59,West,268,5.4,5.4,85,0.00,,,0.00,VWS V13.01,2013-02-03 05:11:00,
2013-02-02 23:12:00,41.0,36.8,29.59,West,268,5.4,5.4,85,0.00,,,0.00,VWS V13.01,2013-02-03 05:12:00,
2013-02-02 23:13:00,40.8,36.7,29.59,NW,306,4.9,4.9,85,0.00,,,0.00,VWS V13.01,2013-02-03 05:13:00,
2013-02-02 23:15:00,40.3,36.1,29.59,WNW,302,0.0,0.0,85,0.00,,,0.00,VWS V13.01,2013-02-03 05:15:00,
2013-02-02 23:16:00,40.3,36.1,29.59,WNW,302,0.0,0.0,85,0.00,,,0.00,VWS V13.01,2013-02-03 05:16:00,
2013-02-02 23:17:00,40.3,36.1,29.59,WNW,302,0.0,0.0,85,0.00,,,0.00,VWS V13.01,2013-02-03 05:17:00,
2013-02-02 23:18:00,40.3,36.1,29.59,WNW,302,0.0,0.0,85,0.00,,,0.00,VWS V13.01,2013-02-03 05:18:00,
2013-02-02 23:19:00,40.3,36.1,29.59,NW,304,3.1,3.1,85,0.00,,,0.00,VWS V13.01,2013-02-03 05:19:00,
2013-02-02 23:20:00,39.9,35.8,29.59,WNW,302,3.6,3.6,85,0.00,,,0.00,VWS V13.01,2013-02-03 05:20:00,
2013-02-02 23:22:00,39.9,35.8,29.59,WNW,302,2.2,2.2,85,0.00,,,0.00,VWS V13.01,2013-02-03 05:22:00,
2013-02-02 23:23:00,40.1,36.0,29.59,WNW,302,3.1,3.1,85,0.00,,,0.00,VWS V13.01,2013-02-03 05:23:00,
2013-02-02 23:24:00,39.7,35.6,29.59,WNW,301,0.0,0.0,85,0.00,,,0.00,VWS V13.01,2013-02-03 05:24:00,
2013-02-02 23:25:00,39.2,35.1,29.59,WNW,301,0.0,0.0,85,0.00,,,0.00,VWS V13.01,2013-02-03 05:25:00,
2013-02-02 23:27:00,39.0,36.6,29.59,WNW,301,0.0,0.0,91,0.00,,,0.00,VWS V13.01,2013-02-03 05:27:00,
2013-02-02 23:28:00,39.2,35.1,29.59,WNW,301,0.0,0.0,85,0.00,,,0.00,VWS V13.01,2013-02-03 05:28:00,
2013-02-02 23:29:00,39.2,35.1,29.59,WNW,301,0.0,0.0,85,0.00,,,0.00,VWS V13.01,2013-02-03 05:29:00,
2013-02-02 23:30:00,38.8,36.4,29.59,WNW,301,0.0,0.0,91,0.00,,,0.00,VWS V13.01,2013-02-03 05:30:00,
2013-02-02 23:31:00,38.7,36.3,29.59,WNW,301,0.0,0.0,91,0.00,,,0.00,VWS V13.01,2013-02-03 05:31:00,
2013-02-02 23:32:00,38.7,36.3,29.59,WNW,301,0.0,0.0,91,0.00,,,0.00,VWS V13.01,2013-02-03 05:32:00,
2013-02-02 23:33:00,38.5,36.1,29.59,WNW,301,0.0,0.0,91,0.00,,,0.00,VWS V13.01,2013-02-03 05:33:00,
2013-02-02 23:34:00,38.5,36.1,29.59,WNW,301,0.0,0.0,91,0.00,,,0.00,VWS V13.01,2013-02-03 05:34:00,
2013-02-02 23:35:00,38.3,35.9,29.59,WNW,301,0.0,0.0,91,0.00,,,0.00,VWS V13.01,2013-02-03 05:35:00,
2013-02-02 23:36:00,38.1,35.7,29.59,WNW,301,0.0,0.0,91,0.00,,,0.00,VWS V13.01,2013-02-03 05:36:00,
2013-02-02 23:37:00,38.1,35.7,29.59,WNW,301,0.0,0.0,91,0.00,,,0.00,VWS V13.01,2013-02-03 05:37:00,
2013-02-02 23:38:00,37.9,35.5,29.59,WNW,301,0.0,0.0,91,0.00,,,0.00,VWS V13.01,2013-02-03 05:38:00,
2013-02-02 23:39:00,37.9,35.5,29.59,WNW,301,0.0,0.0,91,0.00,,,0.00,VWS V13.01,2013-02-03 05:39:00,
2013-02-02 23:41:00,37.9,35.5,29.59,WNW,301,0.0,0.0,91,0.00,,,0.00,VWS V13.01,2013-02-03 05:41:00,
2013-02-02 23:42:00,37.9,35.5,29.59,WNW,301,0.0,0.0,91,0.00,,,0.00,VWS V13.01,2013-02-03 05:42:00,
2013-02-02 23:43:00,37.8,35.4,29.59,WNW,301,0.0,0.0,91,0.00,,,0.00,VWS V13.01,2013-02-03 05:43:00,
2013-02-02 23:44:00,37.8,35.4,29.59,WNW,301,0.0,0.0,91,0.00,,,0.00,VWS V13.01,2013-02-03 05:44:00,
2013-02-02 23:46:00,37.4,35.0,29.59,WNW,301,0.0,0.0,91,0.00,,,0.00,VWS V13.01,2013-02-03 05:46:00,
2013-02-02 23:47:00,37.4,35.0,29.59,WNW,301,0.0,0.0,91,0.00,,,0.00,VWS V13.01,2013-02-03 05:47:00,
2013-02-02 23:48:00,37.4,35.0,29.59,WNW,301,0.0,0.0,91,0.00,,,0.00,VWS V13.01,2013-02-03 05:48:00,
2013-02-02 23:49:00,37.2,34.8,29.59,WNW,301,0.0,0.0,91,0.00,,,0.00,VWS V13.01,2013-02-03 05:49:00,
2013-02-02 23:51:00,37.4,35.0,29.59,WNW,301,0.0,0.0,91,0.00,,,0.00,VWS V13.01,2013-02-03 05:51:00,
2013-02-02 23:52:00,37.4,35.0,29.59,WNW,301,0.0,0.0,91,0.00,,,0.00,VWS V13.01,2013-02-03 05:52:00,
2013-02-02 23:53:00,37.4,35.0,29.59,WNW,301,0.0,0.0,91,0.00,,,0.00,VWS V13.01,2013-02-03 05:53:00,
2013-02-02 23:54:00,37.4,35.0,29.59,WNW,301,0.0,0.0,91,0.00,,,0.00,VWS V13.01,2013-02-03 05:54:00,
2013-02-02 23:56:00,37.4,35.0,29.59,WNW,301,0.0,0.0,91,0.00,,,0.00,VWS V13.01,2013-02-03 05:56:00,
2013-02-02 23:57:00,37.2,34.8,29.62,WNW,301,0.0,0.0,91,0.00,,,0.00,VWS V13.01,2013-02-03 05:57:00,
2013-02-02 23:58:00,37.2,34.8,29.62,WNW,301,0.0,0.0,91,0.00,,,0.00,VWS V13.01,2013-02-03 05:58:00,
2013-02-02 23:59:00,37.2,34.8,29.62,WNW,301,0.0,0.0,91,0.00,,,0.00,VWS V13.01,2013-02-03 05:59:00,